<?xml version="1.0" encoding="UTF-8" standalone="no" ?>
<gpx xmlns="http://www.topografix.com/GPX/1/1" xmlns:xsi="http://www.w3.org/2001/XMLSchema-instance" xsi:schemaLocation="http://www.topografix.com/GPX/1/1 http://www.topografix.com/GPX/1/1/gpx.xsd" version="1.1" creator="VisuGPX - https://www.visugpx.com">
  <metadata>
    <name>Les tournicotis wisigoths à Rustiques - 31299 - UtagawaVTT.com</name>
  </metadata>
  <trk>
    <name><![CDATA[Les tournicotis wisigoths à Rustiques - 31299 - UtagawaVTT.com]]></name>
    <trkseg>
      <trkpt lat="43.2165" lon="2.47276">
        <ele>120.099</ele>
        <time>2021-03-13T08:56:08Z</time>
      </trkpt>
      <trkpt lat="43.2165" lon="2.47275">
        <ele>120.121</ele>
        <time>2021-03-13T08:56:16Z</time>
      </trkpt>
      <trkpt lat="43.21604" lon="2.47227">
        <ele>121.19</ele>
        <time>2021-03-13T08:56:47Z</time>
      </trkpt>
      <trkpt lat="43.21631" lon="2.47203">
        <ele>122.37</ele>
        <time>2021-03-13T08:57:04Z</time>
      </trkpt>
      <trkpt lat="43.21643" lon="2.47125">
        <ele>125.552</ele>
        <time>2021-03-13T08:57:35Z</time>
      </trkpt>
      <trkpt lat="43.2164" lon="2.47092">
        <ele>126.588</ele>
        <time>2021-03-13T08:57:47Z</time>
      </trkpt>
      <trkpt lat="43.21634" lon="2.47042">
        <ele>128.273</ele>
        <time>2021-03-13T08:58:04Z</time>
      </trkpt>
      <trkpt lat="43.21634" lon="2.46987">
        <ele>130.067</ele>
        <time>2021-03-13T08:58:27Z</time>
      </trkpt>
      <trkpt lat="43.21618" lon="2.46905">
        <ele>131.721</ele>
        <time>2021-03-13T08:58:52Z</time>
      </trkpt>
      <trkpt lat="43.21564" lon="2.46753">
        <ele>127.955</ele>
        <time>2021-03-13T08:59:15Z</time>
      </trkpt>
      <trkpt lat="43.21542" lon="2.46596">
        <ele>130.504</ele>
        <time>2021-03-13T08:59:47Z</time>
      </trkpt>
      <trkpt lat="43.21571" lon="2.46527">
        <ele>129.968</ele>
        <time>2021-03-13T09:00:05Z</time>
      </trkpt>
      <trkpt lat="43.21631" lon="2.46473">
        <ele>135.094</ele>
        <time>2021-03-13T09:00:36Z</time>
      </trkpt>
      <trkpt lat="43.21681" lon="2.46434">
        <ele>138.731</ele>
        <time>2021-03-13T09:01:03Z</time>
      </trkpt>
      <trkpt lat="43.21744" lon="2.46436">
        <ele>139.035</ele>
        <time>2021-03-13T09:01:20Z</time>
      </trkpt>
      <trkpt lat="43.21796" lon="2.46406">
        <ele>138.955</ele>
        <time>2021-03-13T09:01:44Z</time>
      </trkpt>
      <trkpt lat="43.21822" lon="2.46346">
        <ele>139.961</ele>
        <time>2021-03-13T09:02:08Z</time>
      </trkpt>
      <trkpt lat="43.21807" lon="2.46315">
        <ele>137.448</ele>
        <time>2021-03-13T09:02:19Z</time>
      </trkpt>
      <trkpt lat="43.21813" lon="2.46249">
        <ele>139.156</ele>
        <time>2021-03-13T09:02:48Z</time>
      </trkpt>
      <trkpt lat="43.21863" lon="2.46183">
        <ele>142.916</ele>
        <time>2021-03-13T09:03:17Z</time>
      </trkpt>
      <trkpt lat="43.2189" lon="2.4612">
        <ele>142.839</ele>
        <time>2021-03-13T09:03:37Z</time>
      </trkpt>
      <trkpt lat="43.21996" lon="2.46131">
        <ele>148.01</ele>
        <time>2021-03-13T09:04:18Z</time>
      </trkpt>
      <trkpt lat="43.22069" lon="2.46147">
        <ele>151.21</ele>
        <time>2021-03-13T09:04:48Z</time>
      </trkpt>
      <trkpt lat="43.22102" lon="2.46173">
        <ele>152.34</ele>
        <time>2021-03-13T09:05:07Z</time>
      </trkpt>
      <trkpt lat="43.22131" lon="2.46188">
        <ele>152.973</ele>
        <time>2021-03-13T09:06:17Z</time>
      </trkpt>
      <trkpt lat="43.22202" lon="2.46167">
        <ele>154.565</ele>
        <time>2021-03-13T09:06:49Z</time>
      </trkpt>
      <trkpt lat="43.22268" lon="2.4621">
        <ele>157.381</ele>
        <time>2021-03-13T09:07:11Z</time>
      </trkpt>
      <trkpt lat="43.22289" lon="2.46212">
        <ele>157.967</ele>
        <time>2021-03-13T09:07:23Z</time>
      </trkpt>
      <trkpt lat="43.22326" lon="2.46228">
        <ele>158.459</ele>
        <time>2021-03-13T09:07:51Z</time>
      </trkpt>
      <trkpt lat="43.22385" lon="2.46246">
        <ele>156.924</ele>
        <time>2021-03-13T09:08:04Z</time>
      </trkpt>
      <trkpt lat="43.22431" lon="2.46271">
        <ele>153.29</ele>
        <time>2021-03-13T09:08:11Z</time>
      </trkpt>
      <trkpt lat="43.2242" lon="2.46375">
        <ele>152.146</ele>
        <time>2021-03-13T09:08:31Z</time>
      </trkpt>
      <trkpt lat="43.22377" lon="2.46447">
        <ele>150.73</ele>
        <time>2021-03-13T09:08:48Z</time>
      </trkpt>
      <trkpt lat="43.22482" lon="2.46457">
        <ele>150.405</ele>
        <time>2021-03-13T09:09:17Z</time>
      </trkpt>
      <trkpt lat="43.22516" lon="2.46512">
        <ele>149.837</ele>
        <time>2021-03-13T09:09:28Z</time>
      </trkpt>
      <trkpt lat="43.22585" lon="2.46543">
        <ele>144.985</ele>
        <time>2021-03-13T09:09:45Z</time>
      </trkpt>
      <trkpt lat="43.22622" lon="2.46573">
        <ele>142.578</ele>
        <time>2021-03-13T09:09:54Z</time>
      </trkpt>
      <trkpt lat="43.22669" lon="2.46539">
        <ele>146.282</ele>
        <time>2021-03-13T09:10:14Z</time>
      </trkpt>
      <trkpt lat="43.2271" lon="2.46569">
        <ele>148.861</ele>
        <time>2021-03-13T09:10:40Z</time>
      </trkpt>
      <trkpt lat="43.22784" lon="2.4661">
        <ele>150.916</ele>
        <time>2021-03-13T09:11:16Z</time>
      </trkpt>
      <trkpt lat="43.22831" lon="2.46597">
        <ele>150.646</ele>
        <time>2021-03-13T09:11:36Z</time>
      </trkpt>
      <trkpt lat="43.22908" lon="2.46542">
        <ele>150.076</ele>
        <time>2021-03-13T09:12:05Z</time>
      </trkpt>
      <trkpt lat="43.22989" lon="2.4655">
        <ele>151.016</ele>
        <time>2021-03-13T09:12:36Z</time>
      </trkpt>
      <trkpt lat="43.23073" lon="2.46507">
        <ele>153.095</ele>
        <time>2021-03-13T09:13:13Z</time>
      </trkpt>
      <trkpt lat="43.23149" lon="2.46496">
        <ele>155.313</ele>
        <time>2021-03-13T09:13:34Z</time>
      </trkpt>
      <trkpt lat="43.23159" lon="2.46439">
        <ele>156.586</ele>
        <time>2021-03-13T09:13:52Z</time>
      </trkpt>
      <trkpt lat="43.23162" lon="2.4638">
        <ele>155.855</ele>
        <time>2021-03-13T09:14:10Z</time>
      </trkpt>
      <trkpt lat="43.23144" lon="2.46324">
        <ele>149.183</ele>
        <time>2021-03-13T09:14:24Z</time>
      </trkpt>
      <trkpt lat="43.23139" lon="2.46327">
        <ele>148.922</ele>
        <time>2021-03-13T09:14:39Z</time>
      </trkpt>
      <trkpt lat="43.23141" lon="2.46326">
        <ele>148.957</ele>
        <time>2021-03-13T09:15:00Z</time>
      </trkpt>
      <trkpt lat="43.23152" lon="2.46276">
        <ele>143.325</ele>
        <time>2021-03-13T09:15:11Z</time>
      </trkpt>
      <trkpt lat="43.23201" lon="2.46225">
        <ele>141.777</ele>
        <time>2021-03-13T09:15:24Z</time>
      </trkpt>
      <trkpt lat="43.23251" lon="2.46145">
        <ele>138.898</ele>
        <time>2021-03-13T09:15:48Z</time>
      </trkpt>
      <trkpt lat="43.23215" lon="2.46082">
        <ele>131.091</ele>
        <time>2021-03-13T09:16:03Z</time>
      </trkpt>
      <trkpt lat="43.23183" lon="2.46024">
        <ele>127.787</ele>
        <time>2021-03-13T09:16:23Z</time>
      </trkpt>
      <trkpt lat="43.23143" lon="2.45969">
        <ele>127</ele>
        <time>2021-03-13T09:16:39Z</time>
      </trkpt>
      <trkpt lat="43.23152" lon="2.45913">
        <ele>126.784</ele>
        <time>2021-03-13T09:16:57Z</time>
      </trkpt>
      <trkpt lat="43.23151" lon="2.45891">
        <ele>126.94</ele>
        <time>2021-03-13T09:17:37Z</time>
      </trkpt>
      <trkpt lat="43.23156" lon="2.45866">
        <ele>127.263</ele>
        <time>2021-03-13T09:17:47Z</time>
      </trkpt>
      <trkpt lat="43.23188" lon="2.458">
        <ele>126.407</ele>
        <time>2021-03-13T09:18:16Z</time>
      </trkpt>
      <trkpt lat="43.23185" lon="2.45796">
        <ele>126.824</ele>
        <time>2021-03-13T09:19:47Z</time>
      </trkpt>
      <trkpt lat="43.23201" lon="2.45706">
        <ele>126.188</ele>
        <time>2021-03-13T09:20:18Z</time>
      </trkpt>
      <trkpt lat="43.23203" lon="2.4558">
        <ele>126.823</ele>
        <time>2021-03-13T09:20:52Z</time>
      </trkpt>
      <trkpt lat="43.2321" lon="2.45485">
        <ele>129.046</ele>
        <time>2021-03-13T09:21:14Z</time>
      </trkpt>
      <trkpt lat="43.23222" lon="2.454">
        <ele>131.726</ele>
        <time>2021-03-13T09:21:39Z</time>
      </trkpt>
      <trkpt lat="43.23243" lon="2.45374">
        <ele>130.082</ele>
        <time>2021-03-13T09:21:56Z</time>
      </trkpt>
      <trkpt lat="43.23251" lon="2.45266">
        <ele>123.893</ele>
        <time>2021-03-13T09:22:10Z</time>
      </trkpt>
      <trkpt lat="43.23235" lon="2.45217">
        <ele>125.885</ele>
        <time>2021-03-13T09:22:22Z</time>
      </trkpt>
      <trkpt lat="43.23253" lon="2.45143">
        <ele>121.714</ele>
        <time>2021-03-13T09:22:40Z</time>
      </trkpt>
      <trkpt lat="43.23253" lon="2.45066">
        <ele>122.442</ele>
        <time>2021-03-13T09:23:06Z</time>
      </trkpt>
      <trkpt lat="43.23255" lon="2.45034">
        <ele>123.744</ele>
        <time>2021-03-13T09:23:31Z</time>
      </trkpt>
      <trkpt lat="43.23263" lon="2.45004">
        <ele>125.205</ele>
        <time>2021-03-13T09:23:58Z</time>
      </trkpt>
      <trkpt lat="43.23258" lon="2.44989">
        <ele>127.702</ele>
        <time>2021-03-13T09:24:16Z</time>
      </trkpt>
      <trkpt lat="43.23272" lon="2.4495">
        <ele>128.834</ele>
        <time>2021-03-13T09:24:45Z</time>
      </trkpt>
      <trkpt lat="43.2328" lon="2.44899">
        <ele>130.91</ele>
        <time>2021-03-13T09:25:08Z</time>
      </trkpt>
      <trkpt lat="43.23283" lon="2.44871">
        <ele>130.506</ele>
        <time>2021-03-13T09:25:25Z</time>
      </trkpt>
      <trkpt lat="43.23329" lon="2.44801">
        <ele>125.954</ele>
        <time>2021-03-13T09:25:38Z</time>
      </trkpt>
      <trkpt lat="43.23382" lon="2.4477">
        <ele>121.717</ele>
        <time>2021-03-13T09:25:51Z</time>
      </trkpt>
      <trkpt lat="43.234" lon="2.44756">
        <ele>118.34</ele>
        <time>2021-03-13T09:26:02Z</time>
      </trkpt>
      <trkpt lat="43.23401" lon="2.44715">
        <ele>114.083</ele>
        <time>2021-03-13T09:26:09Z</time>
      </trkpt>
      <trkpt lat="43.23379" lon="2.44714">
        <ele>114.393</ele>
        <time>2021-03-13T09:26:20Z</time>
      </trkpt>
      <trkpt lat="43.23296" lon="2.44771">
        <ele>120.863</ele>
        <time>2021-03-13T09:27:09Z</time>
      </trkpt>
      <trkpt lat="43.23234" lon="2.44758">
        <ele>118.959</ele>
        <time>2021-03-13T09:27:32Z</time>
      </trkpt>
      <trkpt lat="43.2321" lon="2.44784">
        <ele>120.198</ele>
        <time>2021-03-13T09:27:51Z</time>
      </trkpt>
      <trkpt lat="43.23136" lon="2.44707">
        <ele>122.313</ele>
        <time>2021-03-13T09:28:24Z</time>
      </trkpt>
      <trkpt lat="43.2316" lon="2.44613">
        <ele>126.275</ele>
        <time>2021-03-13T09:28:54Z</time>
      </trkpt>
      <trkpt lat="43.2317" lon="2.44529">
        <ele>130.856</ele>
        <time>2021-03-13T09:29:22Z</time>
      </trkpt>
      <trkpt lat="43.23188" lon="2.44441">
        <ele>132.869</ele>
        <time>2021-03-13T09:29:53Z</time>
      </trkpt>
      <trkpt lat="43.23181" lon="2.4437">
        <ele>137.09</ele>
        <time>2021-03-13T09:30:19Z</time>
      </trkpt>
      <trkpt lat="43.233" lon="2.44181">
        <ele>131.868</ele>
        <time>2021-03-13T09:30:56Z</time>
      </trkpt>
      <trkpt lat="43.233" lon="2.44073">
        <ele>129.943</ele>
        <time>2021-03-13T09:31:17Z</time>
      </trkpt>
      <trkpt lat="43.23271" lon="2.44006">
        <ele>133.275</ele>
        <time>2021-03-13T09:31:49Z</time>
      </trkpt>
      <trkpt lat="43.23264" lon="2.43993">
        <ele>134.087</ele>
        <time>2021-03-13T09:32:13Z</time>
      </trkpt>
      <trkpt lat="43.23259" lon="2.43978">
        <ele>134.502</ele>
        <time>2021-03-13T09:32:30Z</time>
      </trkpt>
      <trkpt lat="43.2325" lon="2.43981">
        <ele>135.565</ele>
        <time>2021-03-13T09:32:55Z</time>
      </trkpt>
      <trkpt lat="43.23244" lon="2.43986">
        <ele>136.223</ele>
        <time>2021-03-13T09:33:09Z</time>
      </trkpt>
      <trkpt lat="43.23242" lon="2.44024">
        <ele>138.418</ele>
        <time>2021-03-13T09:33:33Z</time>
      </trkpt>
      <trkpt lat="43.2323" lon="2.44028">
        <ele>139.637</ele>
        <time>2021-03-13T09:33:44Z</time>
      </trkpt>
      <trkpt lat="43.23205" lon="2.44022">
        <ele>139.542</ele>
        <time>2021-03-13T09:34:01Z</time>
      </trkpt>
      <trkpt lat="43.23204" lon="2.44026">
        <ele>139.808</ele>
        <time>2021-03-13T09:34:47Z</time>
      </trkpt>
      <trkpt lat="43.23242" lon="2.44025">
        <ele>138.466</ele>
        <time>2021-03-13T09:35:09Z</time>
      </trkpt>
      <trkpt lat="43.23223" lon="2.4398">
        <ele>137.238</ele>
        <time>2021-03-13T09:35:26Z</time>
      </trkpt>
      <trkpt lat="43.23223" lon="2.43974">
        <ele>136.433</ele>
        <time>2021-03-13T09:35:54Z</time>
      </trkpt>
      <trkpt lat="43.23236" lon="2.43954">
        <ele>132.842</ele>
        <time>2021-03-13T09:36:04Z</time>
      </trkpt>
      <trkpt lat="43.23243" lon="2.43937">
        <ele>130.47</ele>
        <time>2021-03-13T09:36:12Z</time>
      </trkpt>
      <trkpt lat="43.23267" lon="2.43943">
        <ele>129.158</ele>
        <time>2021-03-13T09:36:35Z</time>
      </trkpt>
      <trkpt lat="43.23273" lon="2.43979">
        <ele>131.383</ele>
        <time>2021-03-13T09:36:46Z</time>
      </trkpt>
      <trkpt lat="43.23314" lon="2.44076">
        <ele>128.267</ele>
        <time>2021-03-13T09:37:14Z</time>
      </trkpt>
      <trkpt lat="43.2332" lon="2.44053">
        <ele>125.999</ele>
        <time>2021-03-13T09:37:43Z</time>
      </trkpt>
      <trkpt lat="43.23315" lon="2.44008">
        <ele>124.438</ele>
        <time>2021-03-13T09:38:02Z</time>
      </trkpt>
      <trkpt lat="43.23352" lon="2.4408">
        <ele>124.92</ele>
        <time>2021-03-13T09:38:31Z</time>
      </trkpt>
      <trkpt lat="43.23384" lon="2.44074">
        <ele>125.052</ele>
        <time>2021-03-13T09:38:59Z</time>
      </trkpt>
      <trkpt lat="43.23431" lon="2.4403">
        <ele>120.322</ele>
        <time>2021-03-13T09:39:13Z</time>
      </trkpt>
      <trkpt lat="43.23447" lon="2.44084">
        <ele>125.115</ele>
        <time>2021-03-13T09:39:31Z</time>
      </trkpt>
      <trkpt lat="43.23467" lon="2.44162">
        <ele>124.057</ele>
        <time>2021-03-13T09:39:51Z</time>
      </trkpt>
      <trkpt lat="43.23519" lon="2.44228">
        <ele>119.89</ele>
        <time>2021-03-13T09:40:52Z</time>
      </trkpt>
      <trkpt lat="43.23556" lon="2.44234">
        <ele>113.811</ele>
        <time>2021-03-13T09:41:09Z</time>
      </trkpt>
      <trkpt lat="43.23561" lon="2.44287">
        <ele>110.724</ele>
        <time>2021-03-13T09:42:00Z</time>
      </trkpt>
      <trkpt lat="43.23571" lon="2.44335">
        <ele>105.89</ele>
        <time>2021-03-13T09:42:56Z</time>
      </trkpt>
      <trkpt lat="43.23586" lon="2.44338">
        <ele>103.868</ele>
        <time>2021-03-13T09:43:12Z</time>
      </trkpt>
      <trkpt lat="43.23613" lon="2.44336">
        <ele>100.485</ele>
        <time>2021-03-13T09:43:27Z</time>
      </trkpt>
      <trkpt lat="43.23625" lon="2.44253">
        <ele>96.693</ele>
        <time>2021-03-13T09:44:04Z</time>
      </trkpt>
      <trkpt lat="43.23667" lon="2.44203">
        <ele>97.101</ele>
        <time>2021-03-13T09:44:37Z</time>
      </trkpt>
      <trkpt lat="43.23677" lon="2.44164">
        <ele>99.183</ele>
        <time>2021-03-13T09:45:05Z</time>
      </trkpt>
      <trkpt lat="43.23635" lon="2.44052">
        <ele>99.451</ele>
        <time>2021-03-13T09:45:40Z</time>
      </trkpt>
      <trkpt lat="43.23689" lon="2.44009">
        <ele>104.564</ele>
        <time>2021-03-13T09:46:11Z</time>
      </trkpt>
      <trkpt lat="43.2372" lon="2.43979">
        <ele>108.31</ele>
        <time>2021-03-13T09:46:33Z</time>
      </trkpt>
      <trkpt lat="43.23746" lon="2.4395">
        <ele>111.707</ele>
        <time>2021-03-13T09:46:58Z</time>
      </trkpt>
      <trkpt lat="43.23755" lon="2.43947">
        <ele>112.891</ele>
        <time>2021-03-13T09:47:13Z</time>
      </trkpt>
      <trkpt lat="43.23773" lon="2.43944">
        <ele>115.693</ele>
        <time>2021-03-13T09:47:42Z</time>
      </trkpt>
      <trkpt lat="43.23798" lon="2.4396">
        <ele>120.763</ele>
        <time>2021-03-13T09:48:14Z</time>
      </trkpt>
      <trkpt lat="43.23806" lon="2.43971">
        <ele>122.219</ele>
        <time>2021-03-13T09:48:32Z</time>
      </trkpt>
      <trkpt lat="43.23816" lon="2.43971">
        <ele>123.08</ele>
        <time>2021-03-13T09:48:45Z</time>
      </trkpt>
      <trkpt lat="43.2393" lon="2.43912">
        <ele>133.407</ele>
        <time>2021-03-13T09:50:00Z</time>
      </trkpt>
      <trkpt lat="43.23984" lon="2.43924">
        <ele>133.9</ele>
        <time>2021-03-13T09:50:27Z</time>
      </trkpt>
      <trkpt lat="43.24018" lon="2.44002">
        <ele>141.206</ele>
        <time>2021-03-13T09:50:55Z</time>
      </trkpt>
      <trkpt lat="43.24069" lon="2.43996">
        <ele>142.625</ele>
        <time>2021-03-13T09:51:16Z</time>
      </trkpt>
      <trkpt lat="43.24107" lon="2.43984">
        <ele>141.172</ele>
        <time>2021-03-13T09:51:35Z</time>
      </trkpt>
      <trkpt lat="43.24121" lon="2.44031">
        <ele>139.889</ele>
        <time>2021-03-13T09:51:47Z</time>
      </trkpt>
      <trkpt lat="43.2419" lon="2.44083">
        <ele>140.09</ele>
        <time>2021-03-13T09:52:21Z</time>
      </trkpt>
      <trkpt lat="43.24258" lon="2.44106">
        <ele>138.887</ele>
        <time>2021-03-13T09:52:57Z</time>
      </trkpt>
      <trkpt lat="43.24282" lon="2.44121">
        <ele>134.191</ele>
        <time>2021-03-13T09:53:14Z</time>
      </trkpt>
      <trkpt lat="43.24306" lon="2.44144">
        <ele>128.938</ele>
        <time>2021-03-13T09:53:23Z</time>
      </trkpt>
      <trkpt lat="43.24267" lon="2.44207">
        <ele>127.68</ele>
        <time>2021-03-13T09:53:51Z</time>
      </trkpt>
      <trkpt lat="43.24293" lon="2.44286">
        <ele>122.022</ele>
        <time>2021-03-13T09:54:04Z</time>
      </trkpt>
      <trkpt lat="43.24323" lon="2.44352">
        <ele>121.03</ele>
        <time>2021-03-13T09:54:16Z</time>
      </trkpt>
      <trkpt lat="43.24364" lon="2.44451">
        <ele>122.635</ele>
        <time>2021-03-13T09:54:46Z</time>
      </trkpt>
      <trkpt lat="43.24361" lon="2.44592">
        <ele>123.575</ele>
        <time>2021-03-13T09:55:19Z</time>
      </trkpt>
      <trkpt lat="43.24382" lon="2.4478">
        <ele>124.066</ele>
        <time>2021-03-13T09:55:54Z</time>
      </trkpt>
      <trkpt lat="43.24387" lon="2.44871">
        <ele>123.774</ele>
        <time>2021-03-13T09:56:09Z</time>
      </trkpt>
      <trkpt lat="43.24424" lon="2.45007">
        <ele>125</ele>
        <time>2021-03-13T09:56:34Z</time>
      </trkpt>
      <trkpt lat="43.24483" lon="2.45002">
        <ele>126.474</ele>
        <time>2021-03-13T09:56:58Z</time>
      </trkpt>
      <trkpt lat="43.24514" lon="2.45062">
        <ele>128.576</ele>
        <time>2021-03-13T09:57:24Z</time>
      </trkpt>
      <trkpt lat="43.24523" lon="2.45069">
        <ele>128.929</ele>
        <time>2021-03-13T09:57:46Z</time>
      </trkpt>
      <trkpt lat="43.24525" lon="2.45056">
        <ele>128.83</ele>
        <time>2021-03-13T09:58:10Z</time>
      </trkpt>
      <trkpt lat="43.24565" lon="2.45086">
        <ele>130.25</ele>
        <time>2021-03-13T09:58:34Z</time>
      </trkpt>
      <trkpt lat="43.24594" lon="2.45102">
        <ele>131.797</ele>
        <time>2021-03-13T09:58:47Z</time>
      </trkpt>
      <trkpt lat="43.2459" lon="2.45066">
        <ele>131.38</ele>
        <time>2021-03-13T10:00:50Z</time>
      </trkpt>
      <trkpt lat="43.24605" lon="2.4492">
        <ele>130.281</ele>
        <time>2021-03-13T10:02:44Z</time>
      </trkpt>
      <trkpt lat="43.2472" lon="2.44904">
        <ele>134.562</ele>
        <time>2021-03-13T10:03:29Z</time>
      </trkpt>
      <trkpt lat="43.24777" lon="2.44903">
        <ele>136.661</ele>
        <time>2021-03-13T10:03:53Z</time>
      </trkpt>
      <trkpt lat="43.24859" lon="2.4494">
        <ele>139.963</ele>
        <time>2021-03-13T10:04:30Z</time>
      </trkpt>
      <trkpt lat="43.24867" lon="2.45027">
        <ele>140.837</ele>
        <time>2021-03-13T10:04:59Z</time>
      </trkpt>
      <trkpt lat="43.2487" lon="2.45088">
        <ele>141.901</ele>
        <time>2021-03-13T10:05:19Z</time>
      </trkpt>
      <trkpt lat="43.24866" lon="2.45156">
        <ele>142.743</ele>
        <time>2021-03-13T10:05:38Z</time>
      </trkpt>
      <trkpt lat="43.24773" lon="2.45363">
        <ele>140.13</ele>
        <time>2021-03-13T10:06:25Z</time>
      </trkpt>
      <trkpt lat="43.24647" lon="2.45415">
        <ele>135.975</ele>
        <time>2021-03-13T10:06:50Z</time>
      </trkpt>
      <trkpt lat="43.24494" lon="2.4542">
        <ele>130.697</ele>
        <time>2021-03-13T10:07:16Z</time>
      </trkpt>
      <trkpt lat="43.24504" lon="2.45468">
        <ele>130.575</ele>
        <time>2021-03-13T10:07:25Z</time>
      </trkpt>
      <trkpt lat="43.24533" lon="2.45643">
        <ele>132.425</ele>
        <time>2021-03-13T10:07:55Z</time>
      </trkpt>
      <trkpt lat="43.24535" lon="2.45924">
        <ele>135.334</ele>
        <time>2021-03-13T10:08:40Z</time>
      </trkpt>
      <trkpt lat="43.24573" lon="2.45941">
        <ele>140.07</ele>
        <time>2021-03-13T10:09:01Z</time>
      </trkpt>
      <trkpt lat="43.24593" lon="2.45896">
        <ele>141.67</ele>
        <time>2021-03-13T10:09:19Z</time>
      </trkpt>
      <trkpt lat="43.24623" lon="2.45851">
        <ele>143.836</ele>
        <time>2021-03-13T10:09:57Z</time>
      </trkpt>
      <trkpt lat="43.24656" lon="2.45809">
        <ele>145.749</ele>
        <time>2021-03-13T10:10:18Z</time>
      </trkpt>
      <trkpt lat="43.24678" lon="2.45785">
        <ele>146.635</ele>
        <time>2021-03-13T10:10:32Z</time>
      </trkpt>
      <trkpt lat="43.24687" lon="2.458">
        <ele>150.548</ele>
        <time>2021-03-13T10:11:09Z</time>
      </trkpt>
      <trkpt lat="43.24746" lon="2.45843">
        <ele>159.841</ele>
        <time>2021-03-13T10:12:12Z</time>
      </trkpt>
      <trkpt lat="43.24786" lon="2.45863">
        <ele>161.628</ele>
        <time>2021-03-13T10:12:41Z</time>
      </trkpt>
      <trkpt lat="43.24839" lon="2.45875">
        <ele>162.143</ele>
        <time>2021-03-13T10:13:10Z</time>
      </trkpt>
      <trkpt lat="43.249" lon="2.45957">
        <ele>161.806</ele>
        <time>2021-03-13T10:13:40Z</time>
      </trkpt>
      <trkpt lat="43.24963" lon="2.45999">
        <ele>161.018</ele>
        <time>2021-03-13T10:13:53Z</time>
      </trkpt>
      <trkpt lat="43.24973" lon="2.45984">
        <ele>161.23</ele>
        <time>2021-03-13T10:14:39Z</time>
      </trkpt>
      <trkpt lat="43.24994" lon="2.45938">
        <ele>161.423</ele>
        <time>2021-03-13T10:18:21Z</time>
      </trkpt>
      <trkpt lat="43.2503" lon="2.45817">
        <ele>156.885</ele>
        <time>2021-03-13T10:18:40Z</time>
      </trkpt>
      <trkpt lat="43.25057" lon="2.45754">
        <ele>154.03</ele>
        <time>2021-03-13T10:18:50Z</time>
      </trkpt>
      <trkpt lat="43.25111" lon="2.4556">
        <ele>156.755</ele>
        <time>2021-03-13T10:19:41Z</time>
      </trkpt>
      <trkpt lat="43.25138" lon="2.45629">
        <ele>158.67</ele>
        <time>2021-03-13T10:20:06Z</time>
      </trkpt>
      <trkpt lat="43.25173" lon="2.45771">
        <ele>160.414</ele>
        <time>2021-03-13T10:20:39Z</time>
      </trkpt>
      <trkpt lat="43.25218" lon="2.45948">
        <ele>166.617</ele>
        <time>2021-03-13T10:21:22Z</time>
      </trkpt>
      <trkpt lat="43.25234" lon="2.46046">
        <ele>169.054</ele>
        <time>2021-03-13T10:21:47Z</time>
      </trkpt>
      <trkpt lat="43.25284" lon="2.46158">
        <ele>169.819</ele>
        <time>2021-03-13T10:22:19Z</time>
      </trkpt>
      <trkpt lat="43.25321" lon="2.46211">
        <ele>172.23</ele>
        <time>2021-03-13T10:22:42Z</time>
      </trkpt>
      <trkpt lat="43.25405" lon="2.46367">
        <ele>172.821</ele>
        <time>2021-03-13T10:23:25Z</time>
      </trkpt>
      <trkpt lat="43.25405" lon="2.46481">
        <ele>171.397</ele>
        <time>2021-03-13T10:23:48Z</time>
      </trkpt>
      <trkpt lat="43.25355" lon="2.46514">
        <ele>171.057</ele>
        <time>2021-03-13T10:24:09Z</time>
      </trkpt>
      <trkpt lat="43.25324" lon="2.46564">
        <ele>172.184</ele>
        <time>2021-03-13T10:24:28Z</time>
      </trkpt>
      <trkpt lat="43.25313" lon="2.46584">
        <ele>173.641</ele>
        <time>2021-03-13T10:24:46Z</time>
      </trkpt>
      <trkpt lat="43.25307" lon="2.46648">
        <ele>177.988</ele>
        <time>2021-03-13T10:25:11Z</time>
      </trkpt>
      <trkpt lat="43.25309" lon="2.46691">
        <ele>178.826</ele>
        <time>2021-03-13T10:25:26Z</time>
      </trkpt>
      <trkpt lat="43.25301" lon="2.46748">
        <ele>180.567</ele>
        <time>2021-03-13T10:25:50Z</time>
      </trkpt>
      <trkpt lat="43.25312" lon="2.46795">
        <ele>181.69</ele>
        <time>2021-03-13T10:26:10Z</time>
      </trkpt>
      <trkpt lat="43.25306" lon="2.46805">
        <ele>181.601</ele>
        <time>2021-03-13T10:26:34Z</time>
      </trkpt>
      <trkpt lat="43.25299" lon="2.46844">
        <ele>181.237</ele>
        <time>2021-03-13T10:27:01Z</time>
      </trkpt>
      <trkpt lat="43.25323" lon="2.46949">
        <ele>182.488</ele>
        <time>2021-03-13T10:27:25Z</time>
      </trkpt>
      <trkpt lat="43.25351" lon="2.4705">
        <ele>185.77</ele>
        <time>2021-03-13T10:27:52Z</time>
      </trkpt>
      <trkpt lat="43.25532" lon="2.46987">
        <ele>181.503</ele>
        <time>2021-03-13T10:28:36Z</time>
      </trkpt>
      <trkpt lat="43.25517" lon="2.46952">
        <ele>180.196</ele>
        <time>2021-03-13T10:28:51Z</time>
      </trkpt>
      <trkpt lat="43.25483" lon="2.46878">
        <ele>179</ele>
        <time>2021-03-13T10:29:05Z</time>
      </trkpt>
      <trkpt lat="43.2549" lon="2.46672">
        <ele>175.732</ele>
        <time>2021-03-13T10:29:40Z</time>
      </trkpt>
      <trkpt lat="43.25456" lon="2.46531">
        <ele>174.447</ele>
        <time>2021-03-13T10:30:06Z</time>
      </trkpt>
      <trkpt lat="43.25489" lon="2.46473">
        <ele>175.48</ele>
        <time>2021-03-13T10:30:28Z</time>
      </trkpt>
      <trkpt lat="43.25583" lon="2.46471">
        <ele>177.171</ele>
        <time>2021-03-13T10:30:58Z</time>
      </trkpt>
      <trkpt lat="43.25637" lon="2.46332">
        <ele>181.073</ele>
        <time>2021-03-13T10:31:41Z</time>
      </trkpt>
      <trkpt lat="43.25661" lon="2.46236">
        <ele>181.037</ele>
        <time>2021-03-13T10:32:07Z</time>
      </trkpt>
      <trkpt lat="43.25685" lon="2.46128">
        <ele>182.535</ele>
        <time>2021-03-13T10:32:36Z</time>
      </trkpt>
      <trkpt lat="43.25688" lon="2.45957">
        <ele>188.646</ele>
        <time>2021-03-13T10:33:17Z</time>
      </trkpt>
      <trkpt lat="43.25704" lon="2.45843">
        <ele>191.796</ele>
        <time>2021-03-13T10:33:53Z</time>
      </trkpt>
      <trkpt lat="43.25743" lon="2.45833">
        <ele>188.479</ele>
        <time>2021-03-13T10:34:16Z</time>
      </trkpt>
      <trkpt lat="43.25746" lon="2.45859">
        <ele>185.736</ele>
        <time>2021-03-13T10:34:28Z</time>
      </trkpt>
      <trkpt lat="43.25735" lon="2.45905">
        <ele>184.51</ele>
        <time>2021-03-13T10:34:40Z</time>
      </trkpt>
      <trkpt lat="43.25736" lon="2.4596">
        <ele>179.083</ele>
        <time>2021-03-13T10:34:52Z</time>
      </trkpt>
      <trkpt lat="43.25734" lon="2.45988">
        <ele>178.175</ele>
        <time>2021-03-13T10:34:59Z</time>
      </trkpt>
      <trkpt lat="43.25719" lon="2.46044">
        <ele>179.402</ele>
        <time>2021-03-13T10:35:16Z</time>
      </trkpt>
      <trkpt lat="43.25717" lon="2.46085">
        <ele>178.348</ele>
        <time>2021-03-13T10:35:38Z</time>
      </trkpt>
      <trkpt lat="43.25707" lon="2.46142">
        <ele>178.122</ele>
        <time>2021-03-13T10:36:01Z</time>
      </trkpt>
      <trkpt lat="43.25688" lon="2.4618">
        <ele>180.275</ele>
        <time>2021-03-13T10:36:20Z</time>
      </trkpt>
      <trkpt lat="43.25683" lon="2.46255">
        <ele>176.725</ele>
        <time>2021-03-13T10:36:41Z</time>
      </trkpt>
      <trkpt lat="43.25676" lon="2.46317">
        <ele>173.377</ele>
        <time>2021-03-13T10:36:57Z</time>
      </trkpt>
      <trkpt lat="43.25654" lon="2.46346">
        <ele>176.406</ele>
        <time>2021-03-13T10:37:18Z</time>
      </trkpt>
      <trkpt lat="43.25651" lon="2.46398">
        <ele>173.945</ele>
        <time>2021-03-13T10:37:42Z</time>
      </trkpt>
      <trkpt lat="43.25657" lon="2.4639">
        <ele>173.32</ele>
        <time>2021-03-13T10:38:07Z</time>
      </trkpt>
      <trkpt lat="43.25697" lon="2.46279">
        <ele>172.256</ele>
        <time>2021-03-13T10:38:55Z</time>
      </trkpt>
      <trkpt lat="43.25777" lon="2.46178">
        <ele>164.706</ele>
        <time>2021-03-13T10:39:31Z</time>
      </trkpt>
      <trkpt lat="43.25826" lon="2.46155">
        <ele>160.766</ele>
        <time>2021-03-13T10:39:47Z</time>
      </trkpt>
      <trkpt lat="43.25842" lon="2.46158">
        <ele>160.458</ele>
        <time>2021-03-13T10:40:12Z</time>
      </trkpt>
      <trkpt lat="43.2589" lon="2.4619">
        <ele>165.346</ele>
        <time>2021-03-13T10:40:46Z</time>
      </trkpt>
      <trkpt lat="43.25881" lon="2.4622">
        <ele>166.865</ele>
        <time>2021-03-13T10:41:05Z</time>
      </trkpt>
      <trkpt lat="43.25851" lon="2.46246">
        <ele>168.305</ele>
        <time>2021-03-13T10:41:29Z</time>
      </trkpt>
      <trkpt lat="43.25823" lon="2.46275">
        <ele>172.374</ele>
        <time>2021-03-13T10:42:18Z</time>
      </trkpt>
      <trkpt lat="43.25807" lon="2.46302">
        <ele>174.943</ele>
        <time>2021-03-13T10:42:33Z</time>
      </trkpt>
      <trkpt lat="43.2582" lon="2.4631">
        <ele>177.447</ele>
        <time>2021-03-13T10:42:51Z</time>
      </trkpt>
      <trkpt lat="43.25836" lon="2.46321">
        <ele>179.13</ele>
        <time>2021-03-13T10:43:12Z</time>
      </trkpt>
      <trkpt lat="43.25869" lon="2.46342">
        <ele>181.956</ele>
        <time>2021-03-13T10:43:29Z</time>
      </trkpt>
      <trkpt lat="43.25888" lon="2.46362">
        <ele>185.293</ele>
        <time>2021-03-13T10:43:45Z</time>
      </trkpt>
      <trkpt lat="43.25946" lon="2.46308">
        <ele>185.876</ele>
        <time>2021-03-13T10:44:21Z</time>
      </trkpt>
      <trkpt lat="43.25985" lon="2.46258">
        <ele>188.069</ele>
        <time>2021-03-13T10:44:53Z</time>
      </trkpt>
      <trkpt lat="43.2602" lon="2.4622">
        <ele>190.189</ele>
        <time>2021-03-13T10:45:14Z</time>
      </trkpt>
      <trkpt lat="43.26041" lon="2.46199">
        <ele>190.95</ele>
        <time>2021-03-13T10:45:35Z</time>
      </trkpt>
      <trkpt lat="43.26057" lon="2.46234">
        <ele>190.249</ele>
        <time>2021-03-13T10:45:52Z</time>
      </trkpt>
      <trkpt lat="43.2606" lon="2.46274">
        <ele>192.397</ele>
        <time>2021-03-13T10:46:09Z</time>
      </trkpt>
      <trkpt lat="43.26059" lon="2.46287">
        <ele>193.481</ele>
        <time>2021-03-13T10:46:42Z</time>
      </trkpt>
      <trkpt lat="43.2601" lon="2.46358">
        <ele>198.327</ele>
        <time>2021-03-13T10:47:17Z</time>
      </trkpt>
      <trkpt lat="43.25989" lon="2.46406">
        <ele>200.752</ele>
        <time>2021-03-13T10:47:35Z</time>
      </trkpt>
      <trkpt lat="43.26022" lon="2.464">
        <ele>201.904</ele>
        <time>2021-03-13T10:47:53Z</time>
      </trkpt>
      <trkpt lat="43.26027" lon="2.46401">
        <ele>202.133</ele>
        <time>2021-03-13T10:48:25Z</time>
      </trkpt>
      <trkpt lat="43.26081" lon="2.46392">
        <ele>203.212</ele>
        <time>2021-03-13T10:48:53Z</time>
      </trkpt>
      <trkpt lat="43.26121" lon="2.46364">
        <ele>201.155</ele>
        <time>2021-03-13T10:49:08Z</time>
      </trkpt>
      <trkpt lat="43.26166" lon="2.46325">
        <ele>201.395</ele>
        <time>2021-03-13T10:49:28Z</time>
      </trkpt>
      <trkpt lat="43.26189" lon="2.46271">
        <ele>201.317</ele>
        <time>2021-03-13T10:49:45Z</time>
      </trkpt>
      <trkpt lat="43.26206" lon="2.46209">
        <ele>200.675</ele>
        <time>2021-03-13T10:50:16Z</time>
      </trkpt>
      <trkpt lat="43.26215" lon="2.46228">
        <ele>201.68</ele>
        <time>2021-03-13T10:50:28Z</time>
      </trkpt>
      <trkpt lat="43.26246" lon="2.46252">
        <ele>202.975</ele>
        <time>2021-03-13T10:50:51Z</time>
      </trkpt>
      <trkpt lat="43.263" lon="2.46265">
        <ele>204.166</ele>
        <time>2021-03-13T10:51:16Z</time>
      </trkpt>
      <trkpt lat="43.26335" lon="2.46207">
        <ele>201.1</ele>
        <time>2021-03-13T10:51:38Z</time>
      </trkpt>
      <trkpt lat="43.26355" lon="2.4619">
        <ele>200.958</ele>
        <time>2021-03-13T10:51:50Z</time>
      </trkpt>
      <trkpt lat="43.26363" lon="2.46193">
        <ele>201.199</ele>
        <time>2021-03-13T10:52:09Z</time>
      </trkpt>
      <trkpt lat="43.26368" lon="2.46239">
        <ele>203.219</ele>
        <time>2021-03-13T10:52:38Z</time>
      </trkpt>
      <trkpt lat="43.26411" lon="2.46274">
        <ele>203.291</ele>
        <time>2021-03-13T10:53:02Z</time>
      </trkpt>
      <trkpt lat="43.26426" lon="2.46267">
        <ele>202.338</ele>
        <time>2021-03-13T10:53:16Z</time>
      </trkpt>
      <trkpt lat="43.26429" lon="2.46332">
        <ele>202.595</ele>
        <time>2021-03-13T10:53:35Z</time>
      </trkpt>
      <trkpt lat="43.26432" lon="2.46429">
        <ele>201.84</ele>
        <time>2021-03-13T10:54:01Z</time>
      </trkpt>
      <trkpt lat="43.26417" lon="2.46436">
        <ele>202.807</ele>
        <time>2021-03-13T10:54:11Z</time>
      </trkpt>
      <trkpt lat="43.26383" lon="2.46417">
        <ele>204.925</ele>
        <time>2021-03-13T10:54:31Z</time>
      </trkpt>
      <trkpt lat="43.26371" lon="2.46489">
        <ele>206.662</ele>
        <time>2021-03-13T10:54:57Z</time>
      </trkpt>
      <trkpt lat="43.26412" lon="2.46556">
        <ele>206.751</ele>
        <time>2021-03-13T10:55:21Z</time>
      </trkpt>
      <trkpt lat="43.2644" lon="2.46573">
        <ele>208.084</ele>
        <time>2021-03-13T10:55:37Z</time>
      </trkpt>
      <trkpt lat="43.26516" lon="2.46578">
        <ele>212.336</ele>
        <time>2021-03-13T10:56:15Z</time>
      </trkpt>
      <trkpt lat="43.26586" lon="2.46588">
        <ele>215.1</ele>
        <time>2021-03-13T10:56:43Z</time>
      </trkpt>
      <trkpt lat="43.26645" lon="2.46537">
        <ele>212.254</ele>
        <time>2021-03-13T10:57:10Z</time>
      </trkpt>
      <trkpt lat="43.26696" lon="2.46611">
        <ele>218.032</ele>
        <time>2021-03-13T10:57:26Z</time>
      </trkpt>
      <trkpt lat="43.26768" lon="2.46623">
        <ele>215.994</ele>
        <time>2021-03-13T10:57:52Z</time>
      </trkpt>
      <trkpt lat="43.26809" lon="2.4675">
        <ele>219.698</ele>
        <time>2021-03-13T10:58:26Z</time>
      </trkpt>
      <trkpt lat="43.26856" lon="2.4677">
        <ele>219.29</ele>
        <time>2021-03-13T10:58:46Z</time>
      </trkpt>
      <trkpt lat="43.26827" lon="2.46869">
        <ele>220.116</ele>
        <time>2021-03-13T10:59:13Z</time>
      </trkpt>
      <trkpt lat="43.26802" lon="2.46967">
        <ele>217.026</ele>
        <time>2021-03-13T10:59:31Z</time>
      </trkpt>
      <trkpt lat="43.26816" lon="2.47039">
        <ele>210.39</ele>
        <time>2021-03-13T11:01:42Z</time>
      </trkpt>
      <trkpt lat="43.2685" lon="2.4705">
        <ele>203.943</ele>
        <time>2021-03-13T11:01:52Z</time>
      </trkpt>
      <trkpt lat="43.26879" lon="2.4707">
        <ele>198.759</ele>
        <time>2021-03-13T11:02:03Z</time>
      </trkpt>
      <trkpt lat="43.26851" lon="2.47192">
        <ele>188.335</ele>
        <time>2021-03-13T11:02:20Z</time>
      </trkpt>
      <trkpt lat="43.26846" lon="2.47262">
        <ele>183.763</ele>
        <time>2021-03-13T11:02:29Z</time>
      </trkpt>
      <trkpt lat="43.26847" lon="2.47333">
        <ele>178.737</ele>
        <time>2021-03-13T11:02:40Z</time>
      </trkpt>
      <trkpt lat="43.26865" lon="2.47344">
        <ele>178.39</ele>
        <time>2021-03-13T11:02:55Z</time>
      </trkpt>
      <trkpt lat="43.26894" lon="2.47304">
        <ele>180.134</ele>
        <time>2021-03-13T11:03:18Z</time>
      </trkpt>
      <trkpt lat="43.26932" lon="2.47222">
        <ele>181.89</ele>
        <time>2021-03-13T11:03:45Z</time>
      </trkpt>
      <trkpt lat="43.26972" lon="2.47114">
        <ele>187.47</ele>
        <time>2021-03-13T11:04:16Z</time>
      </trkpt>
      <trkpt lat="43.2699" lon="2.47011">
        <ele>189.645</ele>
        <time>2021-03-13T11:04:44Z</time>
      </trkpt>
      <trkpt lat="43.27063" lon="2.46831">
        <ele>188.747</ele>
        <time>2021-03-13T11:05:24Z</time>
      </trkpt>
      <trkpt lat="43.27111" lon="2.46777">
        <ele>186.73</ele>
        <time>2021-03-13T11:05:41Z</time>
      </trkpt>
      <trkpt lat="43.27164" lon="2.46834">
        <ele>187.68</ele>
        <time>2021-03-13T11:06:09Z</time>
      </trkpt>
      <trkpt lat="43.27177" lon="2.46855">
        <ele>188.851</ele>
        <time>2021-03-13T11:06:23Z</time>
      </trkpt>
      <trkpt lat="43.27173" lon="2.46913">
        <ele>189.098</ele>
        <time>2021-03-13T11:06:40Z</time>
      </trkpt>
      <trkpt lat="43.27213" lon="2.46956">
        <ele>189.366</ele>
        <time>2021-03-13T11:07:00Z</time>
      </trkpt>
      <trkpt lat="43.27282" lon="2.46935">
        <ele>189.757</ele>
        <time>2021-03-13T11:07:28Z</time>
      </trkpt>
      <trkpt lat="43.27265" lon="2.4697">
        <ele>188.965</ele>
        <time>2021-03-13T11:12:53Z</time>
      </trkpt>
      <trkpt lat="43.2721" lon="2.47046">
        <ele>188.324</ele>
        <time>2021-03-13T11:13:10Z</time>
      </trkpt>
      <trkpt lat="43.27178" lon="2.47074">
        <ele>187.526</ele>
        <time>2021-03-13T11:13:30Z</time>
      </trkpt>
      <trkpt lat="43.27118" lon="2.47115">
        <ele>188.878</ele>
        <time>2021-03-13T11:13:55Z</time>
      </trkpt>
      <trkpt lat="43.27161" lon="2.47177">
        <ele>185.292</ele>
        <time>2021-03-13T11:14:18Z</time>
      </trkpt>
      <trkpt lat="43.27112" lon="2.47213">
        <ele>182.351</ele>
        <time>2021-03-13T11:14:32Z</time>
      </trkpt>
      <trkpt lat="43.27085" lon="2.47239">
        <ele>179.796</ele>
        <time>2021-03-13T11:15:03Z</time>
      </trkpt>
      <trkpt lat="43.27057" lon="2.47294">
        <ele>178.892</ele>
        <time>2021-03-13T11:15:17Z</time>
      </trkpt>
      <trkpt lat="43.27027" lon="2.47348">
        <ele>181</ele>
        <time>2021-03-13T11:15:42Z</time>
      </trkpt>
      <trkpt lat="43.27023" lon="2.47344">
        <ele>181</ele>
        <time>2021-03-13T11:16:12Z</time>
      </trkpt>
      <trkpt lat="43.27014" lon="2.47357">
        <ele>181</ele>
        <time>2021-03-13T11:16:30Z</time>
      </trkpt>
      <trkpt lat="43.26999" lon="2.47365">
        <ele>181</ele>
        <time>2021-03-13T11:16:44Z</time>
      </trkpt>
      <trkpt lat="43.26986" lon="2.47406">
        <ele>181.045</ele>
        <time>2021-03-13T11:16:56Z</time>
      </trkpt>
      <trkpt lat="43.26975" lon="2.47456">
        <ele>180.505</ele>
        <time>2021-03-13T11:17:13Z</time>
      </trkpt>
      <trkpt lat="43.26985" lon="2.47507">
        <ele>181.235</ele>
        <time>2021-03-13T11:17:35Z</time>
      </trkpt>
      <trkpt lat="43.26923" lon="2.47617">
        <ele>178.032</ele>
        <time>2021-03-13T11:18:02Z</time>
      </trkpt>
      <trkpt lat="43.26882" lon="2.47652">
        <ele>175.852</ele>
        <time>2021-03-13T11:18:20Z</time>
      </trkpt>
      <trkpt lat="43.26855" lon="2.47756">
        <ele>173.18</ele>
        <time>2021-03-13T11:18:38Z</time>
      </trkpt>
      <trkpt lat="43.26845" lon="2.47822">
        <ele>166.307</ele>
        <time>2021-03-13T11:18:49Z</time>
      </trkpt>
      <trkpt lat="43.2682" lon="2.47809">
        <ele>161.78</ele>
        <time>2021-03-13T11:19:01Z</time>
      </trkpt>
      <trkpt lat="43.26831" lon="2.47868">
        <ele>156.386</ele>
        <time>2021-03-13T11:19:12Z</time>
      </trkpt>
      <trkpt lat="43.26859" lon="2.47882">
        <ele>157.752</ele>
        <time>2021-03-13T11:19:21Z</time>
      </trkpt>
      <trkpt lat="43.26815" lon="2.4791">
        <ele>151.213</ele>
        <time>2021-03-13T11:19:34Z</time>
      </trkpt>
      <trkpt lat="43.26775" lon="2.47923">
        <ele>148.623</ele>
        <time>2021-03-13T11:19:45Z</time>
      </trkpt>
      <trkpt lat="43.26748" lon="2.47922">
        <ele>149.567</ele>
        <time>2021-03-13T11:19:59Z</time>
      </trkpt>
      <trkpt lat="43.26731" lon="2.47936">
        <ele>152.077</ele>
        <time>2021-03-13T11:20:18Z</time>
      </trkpt>
      <trkpt lat="43.26723" lon="2.47933">
        <ele>153.623</ele>
        <time>2021-03-13T11:20:26Z</time>
      </trkpt>
      <trkpt lat="43.26707" lon="2.47897">
        <ele>158.191</ele>
        <time>2021-03-13T11:21:00Z</time>
      </trkpt>
      <trkpt lat="43.26691" lon="2.47892">
        <ele>161.2</ele>
        <time>2021-03-13T11:21:29Z</time>
      </trkpt>
      <trkpt lat="43.26688" lon="2.47903">
        <ele>161.459</ele>
        <time>2021-03-13T11:21:41Z</time>
      </trkpt>
      <trkpt lat="43.26679" lon="2.47943">
        <ele>161.361</ele>
        <time>2021-03-13T11:22:02Z</time>
      </trkpt>
      <trkpt lat="43.26649" lon="2.48059">
        <ele>156.34</ele>
        <time>2021-03-13T11:22:24Z</time>
      </trkpt>
      <trkpt lat="43.26603" lon="2.48135">
        <ele>154.727</ele>
        <time>2021-03-13T11:22:37Z</time>
      </trkpt>
      <trkpt lat="43.26569" lon="2.48244">
        <ele>152.42</ele>
        <time>2021-03-13T11:22:51Z</time>
      </trkpt>
      <trkpt lat="43.2653" lon="2.48332">
        <ele>148.622</ele>
        <time>2021-03-13T11:23:02Z</time>
      </trkpt>
      <trkpt lat="43.26442" lon="2.48425">
        <ele>145.57</ele>
        <time>2021-03-13T11:23:22Z</time>
      </trkpt>
      <trkpt lat="43.26318" lon="2.48564">
        <ele>143.334</ele>
        <time>2021-03-13T11:23:51Z</time>
      </trkpt>
      <trkpt lat="43.26276" lon="2.48662">
        <ele>140.159</ele>
        <time>2021-03-13T11:24:16Z</time>
      </trkpt>
      <trkpt lat="43.26363" lon="2.48727">
        <ele>137.568</ele>
        <time>2021-03-13T11:24:41Z</time>
      </trkpt>
      <trkpt lat="43.26455" lon="2.48775">
        <ele>145.23</ele>
        <time>2021-03-13T11:25:14Z</time>
      </trkpt>
      <trkpt lat="43.26519" lon="2.48702">
        <ele>147.701</ele>
        <time>2021-03-13T11:25:52Z</time>
      </trkpt>
      <trkpt lat="43.26553" lon="2.48672">
        <ele>149.595</ele>
        <time>2021-03-13T11:26:12Z</time>
      </trkpt>
      <trkpt lat="43.26583" lon="2.48658">
        <ele>151.331</ele>
        <time>2021-03-13T11:26:42Z</time>
      </trkpt>
      <trkpt lat="43.26624" lon="2.48658">
        <ele>152.203</ele>
        <time>2021-03-13T11:27:27Z</time>
      </trkpt>
      <trkpt lat="43.26634" lon="2.48673">
        <ele>151.55</ele>
        <time>2021-03-13T11:27:52Z</time>
      </trkpt>
      <trkpt lat="43.26634" lon="2.48681">
        <ele>152.409</ele>
        <time>2021-03-13T11:28:06Z</time>
      </trkpt>
      <trkpt lat="43.26615" lon="2.48732">
        <ele>159.479</ele>
        <time>2021-03-13T11:28:51Z</time>
      </trkpt>
      <trkpt lat="43.26559" lon="2.48821">
        <ele>158.571</ele>
        <time>2021-03-13T11:29:12Z</time>
      </trkpt>
      <trkpt lat="43.26574" lon="2.48902">
        <ele>155.215</ele>
        <time>2021-03-13T11:29:36Z</time>
      </trkpt>
      <trkpt lat="43.26529" lon="2.48955">
        <ele>156.619</ele>
        <time>2021-03-13T11:29:52Z</time>
      </trkpt>
      <trkpt lat="43.26484" lon="2.49012">
        <ele>155.041</ele>
        <time>2021-03-13T11:30:14Z</time>
      </trkpt>
      <trkpt lat="43.26482" lon="2.49054">
        <ele>157.202</ele>
        <time>2021-03-13T11:30:37Z</time>
      </trkpt>
      <trkpt lat="43.26485" lon="2.49061">
        <ele>157.651</ele>
        <time>2021-03-13T11:30:50Z</time>
      </trkpt>
      <trkpt lat="43.26484" lon="2.49088">
        <ele>159.033</ele>
        <time>2021-03-13T11:31:12Z</time>
      </trkpt>
      <trkpt lat="43.26484" lon="2.49118">
        <ele>160.533</ele>
        <time>2021-03-13T11:31:34Z</time>
      </trkpt>
      <trkpt lat="43.26483" lon="2.49126">
        <ele>160.973</ele>
        <time>2021-03-13T11:31:49Z</time>
      </trkpt>
      <trkpt lat="43.26487" lon="2.49148">
        <ele>161.712</ele>
        <time>2021-03-13T11:32:24Z</time>
      </trkpt>
      <trkpt lat="43.26511" lon="2.49227">
        <ele>159.21</ele>
        <time>2021-03-13T11:32:45Z</time>
      </trkpt>
      <trkpt lat="43.26551" lon="2.4926">
        <ele>154.471</ele>
        <time>2021-03-13T11:32:55Z</time>
      </trkpt>
      <trkpt lat="43.26559" lon="2.49271">
        <ele>153.457</ele>
        <time>2021-03-13T11:33:07Z</time>
      </trkpt>
      <trkpt lat="43.2656" lon="2.49295">
        <ele>149.96</ele>
        <time>2021-03-13T11:33:15Z</time>
      </trkpt>
      <trkpt lat="43.26597" lon="2.49317">
        <ele>144.964</ele>
        <time>2021-03-13T11:33:27Z</time>
      </trkpt>
      <trkpt lat="43.2665" lon="2.49346">
        <ele>139.158</ele>
        <time>2021-03-13T11:33:44Z</time>
      </trkpt>
      <trkpt lat="43.26656" lon="2.49368">
        <ele>137.062</ele>
        <time>2021-03-13T11:33:52Z</time>
      </trkpt>
      <trkpt lat="43.26695" lon="2.49407">
        <ele>131.765</ele>
        <time>2021-03-13T11:34:07Z</time>
      </trkpt>
      <trkpt lat="43.26662" lon="2.49477">
        <ele>131.076</ele>
        <time>2021-03-13T11:34:25Z</time>
      </trkpt>
      <trkpt lat="43.26637" lon="2.49522">
        <ele>130.069</ele>
        <time>2021-03-13T11:34:36Z</time>
      </trkpt>
      <trkpt lat="43.26683" lon="2.49597">
        <ele>123.997</ele>
        <time>2021-03-13T11:34:50Z</time>
      </trkpt>
      <trkpt lat="43.26766" lon="2.49578">
        <ele>118.815</ele>
        <time>2021-03-13T11:35:02Z</time>
      </trkpt>
      <trkpt lat="43.26826" lon="2.49596">
        <ele>114.348</ele>
        <time>2021-03-13T11:35:11Z</time>
      </trkpt>
      <trkpt lat="43.26834" lon="2.49552">
        <ele>111.439</ele>
        <time>2021-03-13T11:35:19Z</time>
      </trkpt>
      <trkpt lat="43.26836" lon="2.49501">
        <ele>109.577</ele>
        <time>2021-03-13T11:35:28Z</time>
      </trkpt>
      <trkpt lat="43.26829" lon="2.49432">
        <ele>111.783</ele>
        <time>2021-03-13T11:36:07Z</time>
      </trkpt>
      <trkpt lat="43.26821" lon="2.4939">
        <ele>114.604</ele>
        <time>2021-03-13T11:36:47Z</time>
      </trkpt>
      <trkpt lat="43.2683" lon="2.49422">
        <ele>112.345</ele>
        <time>2021-03-13T11:37:05Z</time>
      </trkpt>
      <trkpt lat="43.26828" lon="2.49432">
        <ele>111.832</ele>
        <time>2021-03-13T11:37:24Z</time>
      </trkpt>
      <trkpt lat="43.26818" lon="2.49418">
        <ele>113.465</ele>
        <time>2021-03-13T11:37:43Z</time>
      </trkpt>
      <trkpt lat="43.26816" lon="2.49399">
        <ele>114.823</ele>
        <time>2021-03-13T11:37:59Z</time>
      </trkpt>
      <trkpt lat="43.26803" lon="2.49384">
        <ele>115.951</ele>
        <time>2021-03-13T11:38:21Z</time>
      </trkpt>
      <trkpt lat="43.26801" lon="2.49377">
        <ele>116.25</ele>
        <time>2021-03-13T11:39:00Z</time>
      </trkpt>
      <trkpt lat="43.26782" lon="2.49345">
        <ele>119.283</ele>
        <time>2021-03-13T11:39:28Z</time>
      </trkpt>
      <trkpt lat="43.26777" lon="2.49324">
        <ele>120.384</ele>
        <time>2021-03-13T11:39:47Z</time>
      </trkpt>
      <trkpt lat="43.26767" lon="2.49313">
        <ele>122.273</ele>
        <time>2021-03-13T11:40:33Z</time>
      </trkpt>
      <trkpt lat="43.26752" lon="2.49279">
        <ele>126.195</ele>
        <time>2021-03-13T11:40:54Z</time>
      </trkpt>
      <trkpt lat="43.26753" lon="2.49252">
        <ele>126.184</ele>
        <time>2021-03-13T11:41:18Z</time>
      </trkpt>
      <trkpt lat="43.26752" lon="2.49264">
        <ele>126.404</ele>
        <time>2021-03-13T11:42:18Z</time>
      </trkpt>
      <trkpt lat="43.26751" lon="2.49263">
        <ele>126.531</ele>
        <time>2021-03-13T11:43:25Z</time>
      </trkpt>
      <trkpt lat="43.2676" lon="2.49242">
        <ele>125.18</ele>
        <time>2021-03-13T11:43:47Z</time>
      </trkpt>
      <trkpt lat="43.26742" lon="2.49227">
        <ele>126.873</ele>
        <time>2021-03-13T11:44:04Z</time>
      </trkpt>
      <trkpt lat="43.26732" lon="2.49186">
        <ele>124.295</ele>
        <time>2021-03-13T11:44:17Z</time>
      </trkpt>
      <trkpt lat="43.26749" lon="2.49155">
        <ele>119.295</ele>
        <time>2021-03-13T11:44:30Z</time>
      </trkpt>
      <trkpt lat="43.26772" lon="2.49145">
        <ele>116.789</ele>
        <time>2021-03-13T11:44:43Z</time>
      </trkpt>
      <trkpt lat="43.26785" lon="2.49155">
        <ele>116.412</ele>
        <time>2021-03-13T11:45:05Z</time>
      </trkpt>
      <trkpt lat="43.26789" lon="2.49152">
        <ele>115.904</ele>
        <time>2021-03-13T11:45:58Z</time>
      </trkpt>
      <trkpt lat="43.268" lon="2.49173">
        <ele>116.106</ele>
        <time>2021-03-13T11:46:21Z</time>
      </trkpt>
      <trkpt lat="43.2681" lon="2.49168">
        <ele>114.638</ele>
        <time>2021-03-13T11:46:45Z</time>
      </trkpt>
      <trkpt lat="43.26811" lon="2.49154">
        <ele>113.983</ele>
        <time>2021-03-13T11:46:59Z</time>
      </trkpt>
      <trkpt lat="43.26835" lon="2.49182">
        <ele>111.895</ele>
        <time>2021-03-13T11:47:20Z</time>
      </trkpt>
      <trkpt lat="43.26839" lon="2.49159">
        <ele>110.864</ele>
        <time>2021-03-13T11:47:38Z</time>
      </trkpt>
      <trkpt lat="43.26871" lon="2.49039">
        <ele>115.006</ele>
        <time>2021-03-13T11:48:37Z</time>
      </trkpt>
      <trkpt lat="43.26885" lon="2.48969">
        <ele>118.76</ele>
        <time>2021-03-13T11:49:05Z</time>
      </trkpt>
      <trkpt lat="43.2693" lon="2.48911">
        <ele>120.015</ele>
        <time>2021-03-13T11:49:32Z</time>
      </trkpt>
      <trkpt lat="43.26976" lon="2.48904">
        <ele>120.914</ele>
        <time>2021-03-13T11:49:56Z</time>
      </trkpt>
      <trkpt lat="43.2703" lon="2.48742">
        <ele>125.313</ele>
        <time>2021-03-13T11:50:41Z</time>
      </trkpt>
      <trkpt lat="43.27075" lon="2.48755">
        <ele>124.897</ele>
        <time>2021-03-13T11:50:59Z</time>
      </trkpt>
      <trkpt lat="43.27189" lon="2.48771">
        <ele>125.321</ele>
        <time>2021-03-13T11:51:33Z</time>
      </trkpt>
      <trkpt lat="43.27175" lon="2.48703">
        <ele>130.974</ele>
        <time>2021-03-13T11:52:05Z</time>
      </trkpt>
      <trkpt lat="43.27149" lon="2.48662">
        <ele>133.69</ele>
        <time>2021-03-13T11:52:27Z</time>
      </trkpt>
      <trkpt lat="43.27137" lon="2.48645">
        <ele>135.359</ele>
        <time>2021-03-13T11:52:56Z</time>
      </trkpt>
      <trkpt lat="43.27121" lon="2.48615">
        <ele>138.317</ele>
        <time>2021-03-13T11:53:27Z</time>
      </trkpt>
      <trkpt lat="43.27122" lon="2.48598">
        <ele>140.991</ele>
        <time>2021-03-13T11:53:41Z</time>
      </trkpt>
      <trkpt lat="43.27131" lon="2.48593">
        <ele>142.736</ele>
        <time>2021-03-13T11:53:54Z</time>
      </trkpt>
      <trkpt lat="43.27132" lon="2.48576">
        <ele>144.169</ele>
        <time>2021-03-13T11:54:14Z</time>
      </trkpt>
      <trkpt lat="43.2714" lon="2.48553">
        <ele>147.596</ele>
        <time>2021-03-13T11:54:39Z</time>
      </trkpt>
      <trkpt lat="43.27156" lon="2.48534">
        <ele>151.913</ele>
        <time>2021-03-13T11:54:58Z</time>
      </trkpt>
      <trkpt lat="43.27169" lon="2.48508">
        <ele>153.639</ele>
        <time>2021-03-13T11:55:18Z</time>
      </trkpt>
      <trkpt lat="43.27184" lon="2.48484">
        <ele>155.217</ele>
        <time>2021-03-13T11:55:33Z</time>
      </trkpt>
      <trkpt lat="43.27197" lon="2.48454">
        <ele>155.324</ele>
        <time>2021-03-13T11:55:48Z</time>
      </trkpt>
      <trkpt lat="43.27189" lon="2.48427">
        <ele>151.779</ele>
        <time>2021-03-13T11:55:57Z</time>
      </trkpt>
      <trkpt lat="43.27188" lon="2.48381">
        <ele>148.956</ele>
        <time>2021-03-13T11:56:12Z</time>
      </trkpt>
      <trkpt lat="43.27192" lon="2.4837">
        <ele>149.531</ele>
        <time>2021-03-13T11:56:30Z</time>
      </trkpt>
      <trkpt lat="43.27198" lon="2.48315">
        <ele>151.063</ele>
        <time>2021-03-13T11:56:55Z</time>
      </trkpt>
      <trkpt lat="43.27205" lon="2.48282">
        <ele>153.908</ele>
        <time>2021-03-13T11:57:13Z</time>
      </trkpt>
      <trkpt lat="43.27208" lon="2.48251">
        <ele>155.888</ele>
        <time>2021-03-13T11:57:29Z</time>
      </trkpt>
      <trkpt lat="43.27208" lon="2.48218">
        <ele>157.194</ele>
        <time>2021-03-13T11:57:55Z</time>
      </trkpt>
      <trkpt lat="43.27201" lon="2.48165">
        <ele>157.023</ele>
        <time>2021-03-13T11:58:15Z</time>
      </trkpt>
      <trkpt lat="43.27206" lon="2.48137">
        <ele>157.908</ele>
        <time>2021-03-13T11:58:39Z</time>
      </trkpt>
      <trkpt lat="43.27234" lon="2.48086">
        <ele>161.753</ele>
        <time>2021-03-13T11:59:03Z</time>
      </trkpt>
      <trkpt lat="43.27244" lon="2.48043">
        <ele>162.412</ele>
        <time>2021-03-13T11:59:20Z</time>
      </trkpt>
      <trkpt lat="43.27268" lon="2.4801">
        <ele>166.042</ele>
        <time>2021-03-13T11:59:39Z</time>
      </trkpt>
      <trkpt lat="43.27285" lon="2.47992">
        <ele>168.477</ele>
        <time>2021-03-13T11:59:57Z</time>
      </trkpt>
      <trkpt lat="43.27298" lon="2.47987">
        <ele>170.083</ele>
        <time>2021-03-13T12:00:21Z</time>
      </trkpt>
      <trkpt lat="43.27337" lon="2.47964">
        <ele>173.94</ele>
        <time>2021-03-13T12:01:01Z</time>
      </trkpt>
      <trkpt lat="43.27356" lon="2.47954">
        <ele>176.415</ele>
        <time>2021-03-13T12:01:28Z</time>
      </trkpt>
      <trkpt lat="43.27402" lon="2.47957">
        <ele>182.483</ele>
        <time>2021-03-13T12:02:10Z</time>
      </trkpt>
      <trkpt lat="43.27429" lon="2.47938">
        <ele>186.968</ele>
        <time>2021-03-13T12:02:44Z</time>
      </trkpt>
      <trkpt lat="43.27461" lon="2.47925">
        <ele>189.648</ele>
        <time>2021-03-13T12:03:19Z</time>
      </trkpt>
      <trkpt lat="43.27496" lon="2.47908">
        <ele>190.628</ele>
        <time>2021-03-13T12:03:43Z</time>
      </trkpt>
      <trkpt lat="43.27526" lon="2.47927">
        <ele>189.791</ele>
        <time>2021-03-13T12:04:01Z</time>
      </trkpt>
      <trkpt lat="43.27591" lon="2.47887">
        <ele>186.457</ele>
        <time>2021-03-13T12:04:20Z</time>
      </trkpt>
      <trkpt lat="43.27596" lon="2.47856">
        <ele>190.58</ele>
        <time>2021-03-13T12:04:34Z</time>
      </trkpt>
      <trkpt lat="43.27619" lon="2.47848">
        <ele>191.388</ele>
        <time>2021-03-13T12:04:52Z</time>
      </trkpt>
      <trkpt lat="43.27625" lon="2.47783">
        <ele>195.16</ele>
        <time>2021-03-13T12:05:23Z</time>
      </trkpt>
      <trkpt lat="43.27647" lon="2.47746">
        <ele>197.363</ele>
        <time>2021-03-13T12:05:49Z</time>
      </trkpt>
      <trkpt lat="43.27667" lon="2.47708">
        <ele>198.253</ele>
        <time>2021-03-13T12:06:16Z</time>
      </trkpt>
      <trkpt lat="43.27662" lon="2.47641">
        <ele>199.222</ele>
        <time>2021-03-13T12:06:47Z</time>
      </trkpt>
      <trkpt lat="43.27676" lon="2.47587">
        <ele>199.951</ele>
        <time>2021-03-13T12:07:12Z</time>
      </trkpt>
      <trkpt lat="43.27691" lon="2.47528">
        <ele>199.608</ele>
        <time>2021-03-13T12:07:34Z</time>
      </trkpt>
      <trkpt lat="43.27722" lon="2.47485">
        <ele>199.313</ele>
        <time>2021-03-13T12:07:50Z</time>
      </trkpt>
      <trkpt lat="43.27746" lon="2.47429">
        <ele>196.763</ele>
        <time>2021-03-13T12:08:01Z</time>
      </trkpt>
      <trkpt lat="43.27798" lon="2.47393">
        <ele>197.133</ele>
        <time>2021-03-13T12:08:26Z</time>
      </trkpt>
      <trkpt lat="43.2782" lon="2.47383">
        <ele>197.232</ele>
        <time>2021-03-13T12:08:43Z</time>
      </trkpt>
      <trkpt lat="43.27844" lon="2.47389">
        <ele>198.58</ele>
        <time>2021-03-13T12:09:16Z</time>
      </trkpt>
      <trkpt lat="43.27922" lon="2.4744">
        <ele>201.96</ele>
        <time>2021-03-13T12:10:06Z</time>
      </trkpt>
      <trkpt lat="43.2797" lon="2.47434">
        <ele>199.653</ele>
        <time>2021-03-13T12:10:25Z</time>
      </trkpt>
      <trkpt lat="43.27964" lon="2.47435">
        <ele>199.893</ele>
        <time>2021-03-13T12:21:10Z</time>
      </trkpt>
      <trkpt lat="43.27987" lon="2.47394">
        <ele>199.134</ele>
        <time>2021-03-13T12:21:56Z</time>
      </trkpt>
      <trkpt lat="43.27993" lon="2.47334">
        <ele>200.576</ele>
        <time>2021-03-13T12:22:22Z</time>
      </trkpt>
      <trkpt lat="43.27961" lon="2.47273">
        <ele>201.56</ele>
        <time>2021-03-13T12:22:44Z</time>
      </trkpt>
      <trkpt lat="43.27913" lon="2.4724">
        <ele>199.448</ele>
        <time>2021-03-13T12:22:54Z</time>
      </trkpt>
      <trkpt lat="43.27858" lon="2.47239">
        <ele>197.092</ele>
        <time>2021-03-13T12:23:04Z</time>
      </trkpt>
      <trkpt lat="43.2785" lon="2.47191">
        <ele>197.522</ele>
        <time>2021-03-13T12:23:23Z</time>
      </trkpt>
      <trkpt lat="43.27847" lon="2.47167">
        <ele>197.798</ele>
        <time>2021-03-13T12:24:55Z</time>
      </trkpt>
      <trkpt lat="43.27868" lon="2.4711">
        <ele>199.465</ele>
        <time>2021-03-13T12:25:21Z</time>
      </trkpt>
      <trkpt lat="43.27832" lon="2.47107">
        <ele>197.981</ele>
        <time>2021-03-13T12:25:38Z</time>
      </trkpt>
      <trkpt lat="43.27791" lon="2.47032">
        <ele>194.982</ele>
        <time>2021-03-13T12:26:05Z</time>
      </trkpt>
      <trkpt lat="43.27752" lon="2.46942">
        <ele>194.285</ele>
        <time>2021-03-13T12:26:32Z</time>
      </trkpt>
      <trkpt lat="43.27765" lon="2.46929">
        <ele>195.372</ele>
        <time>2021-03-13T12:28:50Z</time>
      </trkpt>
      <trkpt lat="43.2772" lon="2.46825">
        <ele>194.355</ele>
        <time>2021-03-13T12:29:35Z</time>
      </trkpt>
      <trkpt lat="43.27723" lon="2.4674">
        <ele>195.822</ele>
        <time>2021-03-13T12:30:01Z</time>
      </trkpt>
      <trkpt lat="43.27703" lon="2.46708">
        <ele>192.045</ele>
        <time>2021-03-13T12:30:17Z</time>
      </trkpt>
      <trkpt lat="43.2779" lon="2.46682">
        <ele>191.145</ele>
        <time>2021-03-13T12:30:32Z</time>
      </trkpt>
      <trkpt lat="43.27846" lon="2.46641">
        <ele>184.754</ele>
        <time>2021-03-13T12:30:40Z</time>
      </trkpt>
      <trkpt lat="43.27888" lon="2.46554">
        <ele>186.234</ele>
        <time>2021-03-13T12:30:57Z</time>
      </trkpt>
      <trkpt lat="43.27925" lon="2.46462">
        <ele>186.903</ele>
        <time>2021-03-13T12:31:24Z</time>
      </trkpt>
      <trkpt lat="43.27989" lon="2.46577">
        <ele>191.854</ele>
        <time>2021-03-13T12:31:58Z</time>
      </trkpt>
      <trkpt lat="43.28035" lon="2.46718">
        <ele>195.785</ele>
        <time>2021-03-13T12:32:33Z</time>
      </trkpt>
      <trkpt lat="43.28089" lon="2.46912">
        <ele>196.545</ele>
        <time>2021-03-13T12:33:10Z</time>
      </trkpt>
      <trkpt lat="43.28151" lon="2.47078">
        <ele>191.237</ele>
        <time>2021-03-13T12:33:38Z</time>
      </trkpt>
      <trkpt lat="43.28172" lon="2.47143">
        <ele>184.646</ele>
        <time>2021-03-13T12:34:19Z</time>
      </trkpt>
      <trkpt lat="43.28171" lon="2.47264">
        <ele>180.475</ele>
        <time>2021-03-13T12:34:33Z</time>
      </trkpt>
      <trkpt lat="43.28167" lon="2.47421">
        <ele>176.85</ele>
        <time>2021-03-13T12:34:51Z</time>
      </trkpt>
      <trkpt lat="43.28166" lon="2.4755">
        <ele>169.586</ele>
        <time>2021-03-13T12:35:02Z</time>
      </trkpt>
      <trkpt lat="43.28164" lon="2.47675">
        <ele>164.213</ele>
        <time>2021-03-13T12:35:14Z</time>
      </trkpt>
      <trkpt lat="43.28207" lon="2.47683">
        <ele>161.836</ele>
        <time>2021-03-13T12:35:52Z</time>
      </trkpt>
      <trkpt lat="43.28227" lon="2.47673">
        <ele>162.324</ele>
        <time>2021-03-13T12:36:38Z</time>
      </trkpt>
      <trkpt lat="43.28269" lon="2.47707">
        <ele>162.555</ele>
        <time>2021-03-13T12:36:57Z</time>
      </trkpt>
      <trkpt lat="43.28299" lon="2.47775">
        <ele>164.631</ele>
        <time>2021-03-13T12:37:19Z</time>
      </trkpt>
      <trkpt lat="43.28362" lon="2.47959">
        <ele>168.155</ele>
        <time>2021-03-13T12:38:03Z</time>
      </trkpt>
      <trkpt lat="43.28382" lon="2.48036">
        <ele>166.509</ele>
        <time>2021-03-13T12:38:51Z</time>
      </trkpt>
      <trkpt lat="43.28402" lon="2.48059">
        <ele>164.48</ele>
        <time>2021-03-13T12:39:25Z</time>
      </trkpt>
      <trkpt lat="43.28412" lon="2.48089">
        <ele>161.517</ele>
        <time>2021-03-13T12:39:34Z</time>
      </trkpt>
      <trkpt lat="43.28412" lon="2.48083">
        <ele>162.062</ele>
        <time>2021-03-13T12:40:09Z</time>
      </trkpt>
      <trkpt lat="43.28441" lon="2.4807">
        <ele>161.059</ele>
        <time>2021-03-13T12:40:43Z</time>
      </trkpt>
      <trkpt lat="43.28499" lon="2.48132">
        <ele>156.976</ele>
        <time>2021-03-13T12:40:57Z</time>
      </trkpt>
      <trkpt lat="43.28513" lon="2.48204">
        <ele>161.979</ele>
        <time>2021-03-13T12:41:18Z</time>
      </trkpt>
      <trkpt lat="43.28513" lon="2.4823">
        <ele>164.355</ele>
        <time>2021-03-13T12:41:40Z</time>
      </trkpt>
      <trkpt lat="43.28524" lon="2.48257">
        <ele>166.372</ele>
        <time>2021-03-13T12:42:03Z</time>
      </trkpt>
      <trkpt lat="43.28538" lon="2.48291">
        <ele>167.646</ele>
        <time>2021-03-13T12:42:26Z</time>
      </trkpt>
      <trkpt lat="43.28594" lon="2.4842">
        <ele>168.58</ele>
        <time>2021-03-13T12:43:02Z</time>
      </trkpt>
      <trkpt lat="43.28652" lon="2.48539">
        <ele>171.032</ele>
        <time>2021-03-13T12:43:40Z</time>
      </trkpt>
      <trkpt lat="43.28696" lon="2.48548">
        <ele>169.273</ele>
        <time>2021-03-13T12:44:02Z</time>
      </trkpt>
      <trkpt lat="43.28743" lon="2.48473">
        <ele>169.854</ele>
        <time>2021-03-13T12:44:14Z</time>
      </trkpt>
      <trkpt lat="43.28777" lon="2.48411">
        <ele>169.452</ele>
        <time>2021-03-13T12:44:42Z</time>
      </trkpt>
      <trkpt lat="43.28782" lon="2.48369">
        <ele>171.5</ele>
        <time>2021-03-13T12:45:03Z</time>
      </trkpt>
      <trkpt lat="43.28778" lon="2.48331">
        <ele>174.105</ele>
        <time>2021-03-13T12:45:22Z</time>
      </trkpt>
      <trkpt lat="43.28781" lon="2.48275">
        <ele>177.789</ele>
        <time>2021-03-13T12:45:44Z</time>
      </trkpt>
      <trkpt lat="43.28788" lon="2.48227">
        <ele>179.548</ele>
        <time>2021-03-13T12:46:01Z</time>
      </trkpt>
      <trkpt lat="43.28828" lon="2.48138">
        <ele>180.319</ele>
        <time>2021-03-13T12:46:44Z</time>
      </trkpt>
      <trkpt lat="43.28864" lon="2.48022">
        <ele>185.865</ele>
        <time>2021-03-13T12:47:33Z</time>
      </trkpt>
      <trkpt lat="43.28896" lon="2.47956">
        <ele>188.601</ele>
        <time>2021-03-13T12:47:58Z</time>
      </trkpt>
      <trkpt lat="43.28896" lon="2.47872">
        <ele>191.204</ele>
        <time>2021-03-13T12:48:29Z</time>
      </trkpt>
      <trkpt lat="43.28916" lon="2.47825">
        <ele>192.39</ele>
        <time>2021-03-13T12:48:57Z</time>
      </trkpt>
      <trkpt lat="43.28985" lon="2.47805">
        <ele>196.73</ele>
        <time>2021-03-13T12:49:33Z</time>
      </trkpt>
      <trkpt lat="43.28996" lon="2.4778">
        <ele>197.555</ele>
        <time>2021-03-13T12:49:56Z</time>
      </trkpt>
      <trkpt lat="43.29013" lon="2.47762">
        <ele>198.561</ele>
        <time>2021-03-13T12:50:21Z</time>
      </trkpt>
      <trkpt lat="43.29034" lon="2.47744">
        <ele>200.006</ele>
        <time>2021-03-13T12:50:40Z</time>
      </trkpt>
      <trkpt lat="43.29046" lon="2.4772">
        <ele>200.842</ele>
        <time>2021-03-13T12:51:01Z</time>
      </trkpt>
      <trkpt lat="43.29066" lon="2.47713">
        <ele>202.758</ele>
        <time>2021-03-13T12:51:40Z</time>
      </trkpt>
      <trkpt lat="43.2908" lon="2.47695">
        <ele>204.289</ele>
        <time>2021-03-13T12:51:57Z</time>
      </trkpt>
      <trkpt lat="43.29096" lon="2.47681">
        <ele>206.229</ele>
        <time>2021-03-13T12:52:30Z</time>
      </trkpt>
      <trkpt lat="43.29103" lon="2.4768">
        <ele>206.804</ele>
        <time>2021-03-13T12:55:44Z</time>
      </trkpt>
      <trkpt lat="43.29128" lon="2.47634">
        <ele>209.506</ele>
        <time>2021-03-13T12:56:08Z</time>
      </trkpt>
      <trkpt lat="43.29096" lon="2.47588">
        <ele>204.71</ele>
        <time>2021-03-13T12:56:28Z</time>
      </trkpt>
      <trkpt lat="43.29061" lon="2.47583">
        <ele>201.19</ele>
        <time>2021-03-13T12:56:37Z</time>
      </trkpt>
      <trkpt lat="43.29045" lon="2.47609">
        <ele>199.83</ele>
        <time>2021-03-13T12:56:44Z</time>
      </trkpt>
      <trkpt lat="43.28999" lon="2.47711">
        <ele>197.795</ele>
        <time>2021-03-13T12:57:06Z</time>
      </trkpt>
      <trkpt lat="43.28975" lon="2.47826">
        <ele>195.375</ele>
        <time>2021-03-13T12:57:22Z</time>
      </trkpt>
      <trkpt lat="43.28939" lon="2.47841">
        <ele>192.915</ele>
        <time>2021-03-13T12:57:29Z</time>
      </trkpt>
      <trkpt lat="43.28893" lon="2.47847">
        <ele>191.911</ele>
        <time>2021-03-13T12:57:42Z</time>
      </trkpt>
      <trkpt lat="43.28894" lon="2.47977">
        <ele>187.87</ele>
        <time>2021-03-13T12:57:57Z</time>
      </trkpt>
      <trkpt lat="43.28855" lon="2.48046">
        <ele>184.523</ele>
        <time>2021-03-13T12:58:07Z</time>
      </trkpt>
      <trkpt lat="43.28826" lon="2.48144">
        <ele>180.054</ele>
        <time>2021-03-13T12:58:18Z</time>
      </trkpt>
      <trkpt lat="43.28793" lon="2.48203">
        <ele>179.995</ele>
        <time>2021-03-13T12:58:33Z</time>
      </trkpt>
      <trkpt lat="43.28783" lon="2.48363">
        <ele>171.771</ele>
        <time>2021-03-13T12:58:58Z</time>
      </trkpt>
      <trkpt lat="43.28776" lon="2.48426">
        <ele>169.034</ele>
        <time>2021-03-13T12:59:08Z</time>
      </trkpt>
      <trkpt lat="43.28776" lon="2.4851">
        <ele>168.446</ele>
        <time>2021-03-13T12:59:30Z</time>
      </trkpt>
      <trkpt lat="43.28792" lon="2.48597">
        <ele>170.191</ele>
        <time>2021-03-13T13:00:00Z</time>
      </trkpt>
      <trkpt lat="43.28799" lon="2.48652">
        <ele>172.184</ele>
        <time>2021-03-13T13:00:25Z</time>
      </trkpt>
      <trkpt lat="43.28825" lon="2.48683">
        <ele>175.194</ele>
        <time>2021-03-13T13:00:52Z</time>
      </trkpt>
      <trkpt lat="43.28838" lon="2.487">
        <ele>176.159</ele>
        <time>2021-03-13T13:01:05Z</time>
      </trkpt>
      <trkpt lat="43.28863" lon="2.4875">
        <ele>178.119</ele>
        <time>2021-03-13T13:01:34Z</time>
      </trkpt>
      <trkpt lat="43.28888" lon="2.4882">
        <ele>180.86</ele>
        <time>2021-03-13T13:02:12Z</time>
      </trkpt>
      <trkpt lat="43.28873" lon="2.48857">
        <ele>179.48</ele>
        <time>2021-03-13T13:02:37Z</time>
      </trkpt>
      <trkpt lat="43.28805" lon="2.48851">
        <ele>176.603</ele>
        <time>2021-03-13T13:02:56Z</time>
      </trkpt>
      <trkpt lat="43.2875" lon="2.48884">
        <ele>174.44</ele>
        <time>2021-03-13T13:03:11Z</time>
      </trkpt>
      <trkpt lat="43.2868" lon="2.48831">
        <ele>171.874</ele>
        <time>2021-03-13T13:03:35Z</time>
      </trkpt>
      <trkpt lat="43.28666" lon="2.48809">
        <ele>170.27</ele>
        <time>2021-03-13T13:03:59Z</time>
      </trkpt>
      <trkpt lat="43.28629" lon="2.48785">
        <ele>166.319</ele>
        <time>2021-03-13T13:04:20Z</time>
      </trkpt>
      <trkpt lat="43.28616" lon="2.48844">
        <ele>163.163</ele>
        <time>2021-03-13T13:04:34Z</time>
      </trkpt>
      <trkpt lat="43.28635" lon="2.48921">
        <ele>163.486</ele>
        <time>2021-03-13T13:04:48Z</time>
      </trkpt>
      <trkpt lat="43.28623" lon="2.48937">
        <ele>162.964</ele>
        <time>2021-03-13T13:05:14Z</time>
      </trkpt>
      <trkpt lat="43.2863" lon="2.48977">
        <ele>165.001</ele>
        <time>2021-03-13T13:05:31Z</time>
      </trkpt>
      <trkpt lat="43.2865" lon="2.49015">
        <ele>168.118</ele>
        <time>2021-03-13T13:05:50Z</time>
      </trkpt>
      <trkpt lat="43.28698" lon="2.49088">
        <ele>171.769</ele>
        <time>2021-03-13T13:06:25Z</time>
      </trkpt>
      <trkpt lat="43.28743" lon="2.49163">
        <ele>172.952</ele>
        <time>2021-03-13T13:06:57Z</time>
      </trkpt>
      <trkpt lat="43.28729" lon="2.49275">
        <ele>172.805</ele>
        <time>2021-03-13T13:07:28Z</time>
      </trkpt>
      <trkpt lat="43.28691" lon="2.49417">
        <ele>177.502</ele>
        <time>2021-03-13T13:08:05Z</time>
      </trkpt>
      <trkpt lat="43.28624" lon="2.49521">
        <ele>179.605</ele>
        <time>2021-03-13T13:08:41Z</time>
      </trkpt>
      <trkpt lat="43.28614" lon="2.49563">
        <ele>180.8</ele>
        <time>2021-03-13T13:08:56Z</time>
      </trkpt>
      <trkpt lat="43.2859" lon="2.49614">
        <ele>182.758</ele>
        <time>2021-03-13T13:09:27Z</time>
      </trkpt>
      <trkpt lat="43.28582" lon="2.49687">
        <ele>184.889</ele>
        <time>2021-03-13T13:10:09Z</time>
      </trkpt>
      <trkpt lat="43.28566" lon="2.49707">
        <ele>184.976</ele>
        <time>2021-03-13T13:10:29Z</time>
      </trkpt>
      <trkpt lat="43.2847" lon="2.498">
        <ele>177.794</ele>
        <time>2021-03-13T13:10:49Z</time>
      </trkpt>
      <trkpt lat="43.28389" lon="2.49809">
        <ele>171.265</ele>
        <time>2021-03-13T13:11:00Z</time>
      </trkpt>
      <trkpt lat="43.28324" lon="2.49786">
        <ele>171.06</ele>
        <time>2021-03-13T13:11:09Z</time>
      </trkpt>
      <trkpt lat="43.28283" lon="2.49806">
        <ele>172.183</ele>
        <time>2021-03-13T13:11:26Z</time>
      </trkpt>
      <trkpt lat="43.28211" lon="2.49794">
        <ele>176.663</ele>
        <time>2021-03-13T13:11:58Z</time>
      </trkpt>
      <trkpt lat="43.28204" lon="2.498">
        <ele>176.892</ele>
        <time>2021-03-13T13:12:19Z</time>
      </trkpt>
      <trkpt lat="43.28188" lon="2.49804">
        <ele>177.881</ele>
        <time>2021-03-13T13:12:40Z</time>
      </trkpt>
      <trkpt lat="43.28122" lon="2.4984">
        <ele>176.82</ele>
        <time>2021-03-13T13:13:06Z</time>
      </trkpt>
      <trkpt lat="43.28074" lon="2.49827">
        <ele>174.503</ele>
        <time>2021-03-13T13:13:26Z</time>
      </trkpt>
      <trkpt lat="43.2803" lon="2.49838">
        <ele>167.932</ele>
        <time>2021-03-13T13:13:37Z</time>
      </trkpt>
      <trkpt lat="43.27994" lon="2.49844">
        <ele>164.036</ele>
        <time>2021-03-13T13:13:46Z</time>
      </trkpt>
      <trkpt lat="43.27909" lon="2.49876">
        <ele>160.404</ele>
        <time>2021-03-13T13:14:10Z</time>
      </trkpt>
      <trkpt lat="43.27848" lon="2.49917">
        <ele>161.625</ele>
        <time>2021-03-13T13:14:27Z</time>
      </trkpt>
      <trkpt lat="43.27833" lon="2.4991">
        <ele>164.085</ele>
        <time>2021-03-13T13:15:27Z</time>
      </trkpt>
      <trkpt lat="43.27819" lon="2.49905">
        <ele>167.874</ele>
        <time>2021-03-13T13:15:42Z</time>
      </trkpt>
      <trkpt lat="43.27816" lon="2.49919">
        <ele>167.585</ele>
        <time>2021-03-13T13:15:59Z</time>
      </trkpt>
      <trkpt lat="43.27799" lon="2.49937">
        <ele>171.575</ele>
        <time>2021-03-13T13:16:40Z</time>
      </trkpt>
      <trkpt lat="43.27787" lon="2.49932">
        <ele>175.063</ele>
        <time>2021-03-13T13:18:25Z</time>
      </trkpt>
      <trkpt lat="43.27769" lon="2.49948">
        <ele>177.569</ele>
        <time>2021-03-13T13:18:54Z</time>
      </trkpt>
      <trkpt lat="43.27765" lon="2.49922">
        <ele>178.28</ele>
        <time>2021-03-13T13:19:12Z</time>
      </trkpt>
      <trkpt lat="43.27715" lon="2.49865">
        <ele>178.258</ele>
        <time>2021-03-13T13:19:34Z</time>
      </trkpt>
      <trkpt lat="43.27675" lon="2.49904">
        <ele>180.057</ele>
        <time>2021-03-13T13:19:55Z</time>
      </trkpt>
      <trkpt lat="43.27647" lon="2.49888">
        <ele>179.462</ele>
        <time>2021-03-13T13:20:06Z</time>
      </trkpt>
      <trkpt lat="43.27617" lon="2.49859">
        <ele>174.949</ele>
        <time>2021-03-13T13:20:43Z</time>
      </trkpt>
      <trkpt lat="43.27631" lon="2.4984">
        <ele>172.519</ele>
        <time>2021-03-13T13:20:59Z</time>
      </trkpt>
      <trkpt lat="43.27613" lon="2.49795">
        <ele>162.681</ele>
        <time>2021-03-13T13:21:09Z</time>
      </trkpt>
      <trkpt lat="43.27599" lon="2.49755">
        <ele>152.313</ele>
        <time>2021-03-13T13:21:19Z</time>
      </trkpt>
      <trkpt lat="43.27599" lon="2.49735">
        <ele>148.87</ele>
        <time>2021-03-13T13:21:25Z</time>
      </trkpt>
      <trkpt lat="43.27578" lon="2.49683">
        <ele>139.712</ele>
        <time>2021-03-13T13:21:38Z</time>
      </trkpt>
      <trkpt lat="43.2756" lon="2.49654">
        <ele>137.358</ele>
        <time>2021-03-13T13:21:48Z</time>
      </trkpt>
      <trkpt lat="43.27539" lon="2.4964">
        <ele>133.173</ele>
        <time>2021-03-13T13:21:55Z</time>
      </trkpt>
      <trkpt lat="43.27502" lon="2.4965">
        <ele>124.854</ele>
        <time>2021-03-13T13:22:05Z</time>
      </trkpt>
      <trkpt lat="43.27465" lon="2.49672">
        <ele>118.152</ele>
        <time>2021-03-13T13:22:22Z</time>
      </trkpt>
      <trkpt lat="43.27412" lon="2.49715">
        <ele>113.583</ele>
        <time>2021-03-13T13:22:38Z</time>
      </trkpt>
      <trkpt lat="43.27376" lon="2.49775">
        <ele>115.662</ele>
        <time>2021-03-13T13:22:59Z</time>
      </trkpt>
      <trkpt lat="43.27336" lon="2.49783">
        <ele>113.425</ele>
        <time>2021-03-13T13:23:11Z</time>
      </trkpt>
      <trkpt lat="43.27283" lon="2.49812">
        <ele>107.135</ele>
        <time>2021-03-13T13:23:29Z</time>
      </trkpt>
      <trkpt lat="43.27244" lon="2.49854">
        <ele>104.952</ele>
        <time>2021-03-13T13:23:44Z</time>
      </trkpt>
      <trkpt lat="43.27208" lon="2.49905">
        <ele>105.118</ele>
        <time>2021-03-13T13:23:52Z</time>
      </trkpt>
      <trkpt lat="43.27178" lon="2.49943">
        <ele>102.839</ele>
        <time>2021-03-13T13:24:14Z</time>
      </trkpt>
      <trkpt lat="43.27174" lon="2.49965">
        <ele>103.768</ele>
        <time>2021-03-13T13:24:27Z</time>
      </trkpt>
      <trkpt lat="43.27171" lon="2.50003">
        <ele>105.701</ele>
        <time>2021-03-13T13:24:46Z</time>
      </trkpt>
      <trkpt lat="43.27176" lon="2.50038">
        <ele>109.511</ele>
        <time>2021-03-13T13:25:04Z</time>
      </trkpt>
      <trkpt lat="43.27157" lon="2.50106">
        <ele>111.457</ele>
        <time>2021-03-13T13:25:45Z</time>
      </trkpt>
      <trkpt lat="43.27157" lon="2.50179">
        <ele>113.133</ele>
        <time>2021-03-13T13:26:04Z</time>
      </trkpt>
      <trkpt lat="43.27147" lon="2.50228">
        <ele>113.187</ele>
        <time>2021-03-13T13:26:27Z</time>
      </trkpt>
      <trkpt lat="43.27121" lon="2.50306">
        <ele>112.32</ele>
        <time>2021-03-13T13:26:40Z</time>
      </trkpt>
      <trkpt lat="43.27107" lon="2.50381">
        <ele>111.016</ele>
        <time>2021-03-13T13:26:51Z</time>
      </trkpt>
      <trkpt lat="43.27097" lon="2.50472">
        <ele>110.741</ele>
        <time>2021-03-13T13:27:12Z</time>
      </trkpt>
      <trkpt lat="43.27085" lon="2.50505">
        <ele>110.609</ele>
        <time>2021-03-13T13:27:29Z</time>
      </trkpt>
      <trkpt lat="43.27069" lon="2.50578">
        <ele>112.104</ele>
        <time>2021-03-13T13:27:55Z</time>
      </trkpt>
      <trkpt lat="43.27046" lon="2.50669">
        <ele>108.969</ele>
        <time>2021-03-13T13:28:10Z</time>
      </trkpt>
      <trkpt lat="43.2704" lon="2.50727">
        <ele>109.552</ele>
        <time>2021-03-13T13:28:28Z</time>
      </trkpt>
      <trkpt lat="43.27046" lon="2.50751">
        <ele>111.27</ele>
        <time>2021-03-13T13:28:59Z</time>
      </trkpt>
      <trkpt lat="43.27043" lon="2.50793">
        <ele>113.505</ele>
        <time>2021-03-13T13:29:16Z</time>
      </trkpt>
      <trkpt lat="43.2704" lon="2.50838">
        <ele>116.891</ele>
        <time>2021-03-13T13:29:36Z</time>
      </trkpt>
      <trkpt lat="43.27041" lon="2.5086">
        <ele>119.147</ele>
        <time>2021-03-13T13:29:55Z</time>
      </trkpt>
      <trkpt lat="43.2703" lon="2.50928">
        <ele>119.244</ele>
        <time>2021-03-13T13:30:25Z</time>
      </trkpt>
      <trkpt lat="43.27028" lon="2.50994">
        <ele>119.386</ele>
        <time>2021-03-13T13:30:42Z</time>
      </trkpt>
      <trkpt lat="43.27028" lon="2.51093">
        <ele>120.687</ele>
        <time>2021-03-13T13:31:09Z</time>
      </trkpt>
      <trkpt lat="43.27028" lon="2.51089">
        <ele>120.67</ele>
        <time>2021-03-13T13:31:32Z</time>
      </trkpt>
      <trkpt lat="43.27037" lon="2.51052">
        <ele>121.951</ele>
        <time>2021-03-13T13:31:55Z</time>
      </trkpt>
      <trkpt lat="43.27037" lon="2.51027">
        <ele>121.73</ele>
        <time>2021-03-13T13:32:13Z</time>
      </trkpt>
      <trkpt lat="43.27047" lon="2.50984">
        <ele>123.595</ele>
        <time>2021-03-13T13:32:35Z</time>
      </trkpt>
      <trkpt lat="43.27064" lon="2.50951">
        <ele>128.652</ele>
        <time>2021-03-13T13:32:53Z</time>
      </trkpt>
      <trkpt lat="43.27072" lon="2.50922">
        <ele>129.521</ele>
        <time>2021-03-13T13:33:09Z</time>
      </trkpt>
      <trkpt lat="43.27085" lon="2.50911">
        <ele>130.279</ele>
        <time>2021-03-13T13:33:19Z</time>
      </trkpt>
      <trkpt lat="43.27155" lon="2.50918">
        <ele>134.503</ele>
        <time>2021-03-13T13:33:59Z</time>
      </trkpt>
      <trkpt lat="43.27204" lon="2.50862">
        <ele>134.327</ele>
        <time>2021-03-13T13:34:26Z</time>
      </trkpt>
      <trkpt lat="43.27201" lon="2.50792">
        <ele>137.496</ele>
        <time>2021-03-13T13:34:49Z</time>
      </trkpt>
      <trkpt lat="43.27214" lon="2.50737">
        <ele>138.799</ele>
        <time>2021-03-13T13:35:05Z</time>
      </trkpt>
      <trkpt lat="43.27229" lon="2.50699">
        <ele>139.293</ele>
        <time>2021-03-13T13:35:24Z</time>
      </trkpt>
      <trkpt lat="43.27273" lon="2.5059">
        <ele>138.522</ele>
        <time>2021-03-13T13:35:55Z</time>
      </trkpt>
      <trkpt lat="43.2727" lon="2.50533">
        <ele>139.534</ele>
        <time>2021-03-13T13:36:13Z</time>
      </trkpt>
      <trkpt lat="43.2726" lon="2.50489">
        <ele>140.635</ele>
        <time>2021-03-13T13:36:25Z</time>
      </trkpt>
      <trkpt lat="43.27274" lon="2.50487">
        <ele>139.956</ele>
        <time>2021-03-13T13:36:45Z</time>
      </trkpt>
      <trkpt lat="43.27314" lon="2.506">
        <ele>134.669</ele>
        <time>2021-03-13T13:36:59Z</time>
      </trkpt>
      <trkpt lat="43.27333" lon="2.50704">
        <ele>124.243</ele>
        <time>2021-03-13T13:37:10Z</time>
      </trkpt>
      <trkpt lat="43.27347" lon="2.50753">
        <ele>120.453</ele>
        <time>2021-03-13T13:37:17Z</time>
      </trkpt>
      <trkpt lat="43.27333" lon="2.50913">
        <ele>119.984</ele>
        <time>2021-03-13T13:37:36Z</time>
      </trkpt>
      <trkpt lat="43.27301" lon="2.51161">
        <ele>111.201</ele>
        <time>2021-03-13T13:38:06Z</time>
      </trkpt>
      <trkpt lat="43.27297" lon="2.51243">
        <ele>107.366</ele>
        <time>2021-03-13T13:38:23Z</time>
      </trkpt>
      <trkpt lat="43.27311" lon="2.51255">
        <ele>103.078</ele>
        <time>2021-03-13T13:38:35Z</time>
      </trkpt>
      <trkpt lat="43.27329" lon="2.51241">
        <ele>98.28</ele>
        <time>2021-03-13T13:38:45Z</time>
      </trkpt>
      <trkpt lat="43.27362" lon="2.51244">
        <ele>91.973</ele>
        <time>2021-03-13T13:38:56Z</time>
      </trkpt>
      <trkpt lat="43.27399" lon="2.5126">
        <ele>88.941</ele>
        <time>2021-03-13T13:39:10Z</time>
      </trkpt>
      <trkpt lat="43.27455" lon="2.51165">
        <ele>90.367</ele>
        <time>2021-03-13T13:39:47Z</time>
      </trkpt>
      <trkpt lat="43.27484" lon="2.51141">
        <ele>91.657</ele>
        <time>2021-03-13T13:40:11Z</time>
      </trkpt>
      <trkpt lat="43.27496" lon="2.51155">
        <ele>92.393</ele>
        <time>2021-03-13T13:40:32Z</time>
      </trkpt>
      <trkpt lat="43.27509" lon="2.51182">
        <ele>93.547</ele>
        <time>2021-03-13T13:40:56Z</time>
      </trkpt>
      <trkpt lat="43.27545" lon="2.51165">
        <ele>96.093</ele>
        <time>2021-03-13T13:41:33Z</time>
      </trkpt>
      <trkpt lat="43.27593" lon="2.51167">
        <ele>101.832</ele>
        <time>2021-03-13T13:42:04Z</time>
      </trkpt>
      <trkpt lat="43.27648" lon="2.51165">
        <ele>106.411</ele>
        <time>2021-03-13T13:42:34Z</time>
      </trkpt>
      <trkpt lat="43.27673" lon="2.51179">
        <ele>109.746</ele>
        <time>2021-03-13T13:42:53Z</time>
      </trkpt>
      <trkpt lat="43.27785" lon="2.51162">
        <ele>116.897</ele>
        <time>2021-03-13T13:43:57Z</time>
      </trkpt>
      <trkpt lat="43.27848" lon="2.51159">
        <ele>119.15</ele>
        <time>2021-03-13T13:44:29Z</time>
      </trkpt>
      <trkpt lat="43.27855" lon="2.51213">
        <ele>121.613</ele>
        <time>2021-03-13T13:45:11Z</time>
      </trkpt>
      <trkpt lat="43.2785" lon="2.51224">
        <ele>122.383</ele>
        <time>2021-03-13T13:45:28Z</time>
      </trkpt>
      <trkpt lat="43.27841" lon="2.51234">
        <ele>123.491</ele>
        <time>2021-03-13T13:45:47Z</time>
      </trkpt>
      <trkpt lat="43.27828" lon="2.51261">
        <ele>124.915</ele>
        <time>2021-03-13T13:46:10Z</time>
      </trkpt>
      <trkpt lat="43.27832" lon="2.51301">
        <ele>123.868</ele>
        <time>2021-03-13T13:46:22Z</time>
      </trkpt>
      <trkpt lat="43.27828" lon="2.51331">
        <ele>122.114</ele>
        <time>2021-03-13T13:46:39Z</time>
      </trkpt>
      <trkpt lat="43.27813" lon="2.51355">
        <ele>121.326</ele>
        <time>2021-03-13T13:46:50Z</time>
      </trkpt>
      <trkpt lat="43.27804" lon="2.51351">
        <ele>122.339</ele>
        <time>2021-03-13T13:47:02Z</time>
      </trkpt>
      <trkpt lat="43.27757" lon="2.51323">
        <ele>124.175</ele>
        <time>2021-03-13T13:47:20Z</time>
      </trkpt>
      <trkpt lat="43.2773" lon="2.513">
        <ele>123.419</ele>
        <time>2021-03-13T13:47:32Z</time>
      </trkpt>
      <trkpt lat="43.27673" lon="2.51272">
        <ele>119.545</ele>
        <time>2021-03-13T13:47:53Z</time>
      </trkpt>
      <trkpt lat="43.27616" lon="2.51276">
        <ele>117.153</ele>
        <time>2021-03-13T13:48:17Z</time>
      </trkpt>
      <trkpt lat="43.27605" lon="2.51298">
        <ele>117.557</ele>
        <time>2021-03-13T13:48:39Z</time>
      </trkpt>
      <trkpt lat="43.27603" lon="2.51304">
        <ele>117.722</ele>
        <time>2021-03-13T13:48:50Z</time>
      </trkpt>
      <trkpt lat="43.27635" lon="2.51356">
        <ele>111.42</ele>
        <time>2021-03-13T13:49:03Z</time>
      </trkpt>
      <trkpt lat="43.27642" lon="2.51411">
        <ele>107.095</ele>
        <time>2021-03-13T13:49:11Z</time>
      </trkpt>
      <trkpt lat="43.27638" lon="2.51475">
        <ele>102.546</ele>
        <time>2021-03-13T13:49:20Z</time>
      </trkpt>
      <trkpt lat="43.27622" lon="2.51561">
        <ele>96.895</ele>
        <time>2021-03-13T13:49:36Z</time>
      </trkpt>
      <trkpt lat="43.27581" lon="2.51582">
        <ele>93.599</ele>
        <time>2021-03-13T13:49:46Z</time>
      </trkpt>
      <trkpt lat="43.2751" lon="2.51609">
        <ele>90.041</ele>
        <time>2021-03-13T13:50:03Z</time>
      </trkpt>
      <trkpt lat="43.27496" lon="2.5162">
        <ele>89.243</ele>
        <time>2021-03-13T13:50:10Z</time>
      </trkpt>
      <trkpt lat="43.27485" lon="2.51632">
        <ele>88.472</ele>
        <time>2021-03-13T13:50:35Z</time>
      </trkpt>
      <trkpt lat="43.27478" lon="2.51636">
        <ele>88.049</ele>
        <time>2021-03-13T14:03:35Z</time>
      </trkpt>
      <trkpt lat="43.27469" lon="2.51644">
        <ele>87.399</ele>
        <time>2021-03-13T14:04:46Z</time>
      </trkpt>
      <trkpt lat="43.2745" lon="2.51655">
        <ele>86.331</ele>
        <time>2021-03-13T14:04:56Z</time>
      </trkpt>
      <trkpt lat="43.2743" lon="2.51664">
        <ele>85.422</ele>
        <time>2021-03-13T14:05:09Z</time>
      </trkpt>
      <trkpt lat="43.27414" lon="2.51684">
        <ele>84.781</ele>
        <time>2021-03-13T14:05:24Z</time>
      </trkpt>
      <trkpt lat="43.27374" lon="2.51708">
        <ele>83.785</ele>
        <time>2021-03-13T14:05:43Z</time>
      </trkpt>
      <trkpt lat="43.27332" lon="2.51728">
        <ele>82.463</ele>
        <time>2021-03-13T14:06:14Z</time>
      </trkpt>
      <trkpt lat="43.27276" lon="2.51768">
        <ele>83.74</ele>
        <time>2021-03-13T14:06:36Z</time>
      </trkpt>
      <trkpt lat="43.27244" lon="2.51841">
        <ele>83.7</ele>
        <time>2021-03-13T14:06:59Z</time>
      </trkpt>
      <trkpt lat="43.27201" lon="2.51873">
        <ele>87.142</ele>
        <time>2021-03-13T14:07:18Z</time>
      </trkpt>
      <trkpt lat="43.27176" lon="2.5189">
        <ele>88.019</ele>
        <time>2021-03-13T14:07:30Z</time>
      </trkpt>
      <trkpt lat="43.27133" lon="2.51883">
        <ele>90.155</ele>
        <time>2021-03-13T14:07:49Z</time>
      </trkpt>
      <trkpt lat="43.27136" lon="2.51859">
        <ele>90.939</ele>
        <time>2021-03-13T14:07:59Z</time>
      </trkpt>
      <trkpt lat="43.27083" lon="2.51855">
        <ele>89.804</ele>
        <time>2021-03-13T14:08:22Z</time>
      </trkpt>
      <trkpt lat="43.27012" lon="2.51853">
        <ele>85.717</ele>
        <time>2021-03-13T14:08:36Z</time>
      </trkpt>
      <trkpt lat="43.26914" lon="2.51782">
        <ele>83.433</ele>
        <time>2021-03-13T14:08:54Z</time>
      </trkpt>
      <trkpt lat="43.26803" lon="2.51711">
        <ele>84.886</ele>
        <time>2021-03-13T14:09:19Z</time>
      </trkpt>
      <trkpt lat="43.26722" lon="2.51661">
        <ele>91.222</ele>
        <time>2021-03-13T14:09:49Z</time>
      </trkpt>
      <trkpt lat="43.26673" lon="2.51582">
        <ele>94.008</ele>
        <time>2021-03-13T14:10:13Z</time>
      </trkpt>
      <trkpt lat="43.26604" lon="2.51442">
        <ele>91.9</ele>
        <time>2021-03-13T14:10:38Z</time>
      </trkpt>
      <trkpt lat="43.26567" lon="2.51332">
        <ele>88.548</ele>
        <time>2021-03-13T14:10:55Z</time>
      </trkpt>
      <trkpt lat="43.26486" lon="2.51308">
        <ele>85.644</ele>
        <time>2021-03-13T14:11:10Z</time>
      </trkpt>
      <trkpt lat="43.26347" lon="2.51309">
        <ele>79.133</ele>
        <time>2021-03-13T14:11:30Z</time>
      </trkpt>
      <trkpt lat="43.26279" lon="2.51214">
        <ele>79.189</ele>
        <time>2021-03-13T14:11:47Z</time>
      </trkpt>
      <trkpt lat="43.26003" lon="2.50999">
        <ele>76</ele>
        <time>2021-03-13T14:12:56Z</time>
      </trkpt>
      <trkpt lat="43.25868" lon="2.508">
        <ele>81.129</ele>
        <time>2021-03-13T14:13:48Z</time>
      </trkpt>
      <trkpt lat="43.25812" lon="2.50721">
        <ele>82.817</ele>
        <time>2021-03-13T14:14:10Z</time>
      </trkpt>
      <trkpt lat="43.25725" lon="2.50597">
        <ele>88.728</ele>
        <time>2021-03-13T14:14:47Z</time>
      </trkpt>
      <trkpt lat="43.2569" lon="2.50514">
        <ele>91.112</ele>
        <time>2021-03-13T14:15:14Z</time>
      </trkpt>
      <trkpt lat="43.25641" lon="2.50418">
        <ele>93.912</ele>
        <time>2021-03-13T14:15:44Z</time>
      </trkpt>
      <trkpt lat="43.256" lon="2.50299">
        <ele>97.047</ele>
        <time>2021-03-13T14:16:17Z</time>
      </trkpt>
      <trkpt lat="43.25565" lon="2.50173">
        <ele>99.202</ele>
        <time>2021-03-13T14:16:49Z</time>
      </trkpt>
      <trkpt lat="43.25528" lon="2.49928">
        <ele>97.231</ele>
        <time>2021-03-13T14:17:45Z</time>
      </trkpt>
      <trkpt lat="43.25495" lon="2.49728">
        <ele>98.457</ele>
        <time>2021-03-13T14:18:29Z</time>
      </trkpt>
      <trkpt lat="43.2543" lon="2.49513">
        <ele>97.035</ele>
        <time>2021-03-13T14:19:18Z</time>
      </trkpt>
      <trkpt lat="43.25408" lon="2.493">
        <ele>99.549</ele>
        <time>2021-03-13T14:20:04Z</time>
      </trkpt>
      <trkpt lat="43.25364" lon="2.49176">
        <ele>102.508</ele>
        <time>2021-03-13T14:20:35Z</time>
      </trkpt>
      <trkpt lat="43.25297" lon="2.48998">
        <ele>110.048</ele>
        <time>2021-03-13T14:21:40Z</time>
      </trkpt>
      <trkpt lat="43.25252" lon="2.4894">
        <ele>113.349</ele>
        <time>2021-03-13T14:22:10Z</time>
      </trkpt>
      <trkpt lat="43.25214" lon="2.48911">
        <ele>116.18</ele>
        <time>2021-03-13T14:22:32Z</time>
      </trkpt>
      <trkpt lat="43.25159" lon="2.4886">
        <ele>121.695</ele>
        <time>2021-03-13T14:23:05Z</time>
      </trkpt>
      <trkpt lat="43.25092" lon="2.48771">
        <ele>130.008</ele>
        <time>2021-03-13T14:23:53Z</time>
      </trkpt>
      <trkpt lat="43.25076" lon="2.48752">
        <ele>134.564</ele>
        <time>2021-03-13T14:24:09Z</time>
      </trkpt>
      <trkpt lat="43.25054" lon="2.48732">
        <ele>137.99</ele>
        <time>2021-03-13T14:24:29Z</time>
      </trkpt>
      <trkpt lat="43.25032" lon="2.4872">
        <ele>139.193</ele>
        <time>2021-03-13T14:24:47Z</time>
      </trkpt>
      <trkpt lat="43.24973" lon="2.48719">
        <ele>143.677</ele>
        <time>2021-03-13T14:25:19Z</time>
      </trkpt>
      <trkpt lat="43.24847" lon="2.48707">
        <ele>150.554</ele>
        <time>2021-03-13T14:26:21Z</time>
      </trkpt>
      <trkpt lat="43.24793" lon="2.48643">
        <ele>151.765</ele>
        <time>2021-03-13T14:26:56Z</time>
      </trkpt>
      <trkpt lat="43.24768" lon="2.48541">
        <ele>155.415</ele>
        <time>2021-03-13T14:27:27Z</time>
      </trkpt>
      <trkpt lat="43.24776" lon="2.48456">
        <ele>159.573</ele>
        <time>2021-03-13T14:27:56Z</time>
      </trkpt>
      <trkpt lat="43.24794" lon="2.48352">
        <ele>165.369</ele>
        <time>2021-03-13T14:28:33Z</time>
      </trkpt>
      <trkpt lat="43.24774" lon="2.48245">
        <ele>165.271</ele>
        <time>2021-03-13T14:29:11Z</time>
      </trkpt>
      <trkpt lat="43.24733" lon="2.48312">
        <ele>168.068</ele>
        <time>2021-03-13T14:29:48Z</time>
      </trkpt>
      <trkpt lat="43.24704" lon="2.48374">
        <ele>166.443</ele>
        <time>2021-03-13T14:30:15Z</time>
      </trkpt>
      <trkpt lat="43.24668" lon="2.48353">
        <ele>168.171</ele>
        <time>2021-03-13T14:30:36Z</time>
      </trkpt>
      <trkpt lat="43.24604" lon="2.48359">
        <ele>165.342</ele>
        <time>2021-03-13T14:30:57Z</time>
      </trkpt>
      <trkpt lat="43.24553" lon="2.48396">
        <ele>163.324</ele>
        <time>2021-03-13T14:31:19Z</time>
      </trkpt>
      <trkpt lat="43.2447" lon="2.48393">
        <ele>160.269</ele>
        <time>2021-03-13T14:31:44Z</time>
      </trkpt>
      <trkpt lat="43.24423" lon="2.48383">
        <ele>159.416</ele>
        <time>2021-03-13T14:31:57Z</time>
      </trkpt>
      <trkpt lat="43.24384" lon="2.48329">
        <ele>159.438</ele>
        <time>2021-03-13T14:32:21Z</time>
      </trkpt>
      <trkpt lat="43.24307" lon="2.48299">
        <ele>158.86</ele>
        <time>2021-03-13T14:32:49Z</time>
      </trkpt>
      <trkpt lat="43.24252" lon="2.48316">
        <ele>159.151</ele>
        <time>2021-03-13T14:33:14Z</time>
      </trkpt>
      <trkpt lat="43.24215" lon="2.4836">
        <ele>160.618</ele>
        <time>2021-03-13T14:33:44Z</time>
      </trkpt>
      <trkpt lat="43.24186" lon="2.48382">
        <ele>155.593</ele>
        <time>2021-03-13T14:34:03Z</time>
      </trkpt>
      <trkpt lat="43.24151" lon="2.48354">
        <ele>155.976</ele>
        <time>2021-03-13T14:34:14Z</time>
      </trkpt>
      <trkpt lat="43.24104" lon="2.48333">
        <ele>146.974</ele>
        <time>2021-03-13T14:34:27Z</time>
      </trkpt>
      <trkpt lat="43.24091" lon="2.48366">
        <ele>141.082</ele>
        <time>2021-03-13T14:34:33Z</time>
      </trkpt>
      <trkpt lat="43.24063" lon="2.48348">
        <ele>139.707</ele>
        <time>2021-03-13T14:34:44Z</time>
      </trkpt>
      <trkpt lat="43.23977" lon="2.48352">
        <ele>132.121</ele>
        <time>2021-03-13T14:35:07Z</time>
      </trkpt>
      <trkpt lat="43.23971" lon="2.48298">
        <ele>131.977</ele>
        <time>2021-03-13T14:35:21Z</time>
      </trkpt>
      <trkpt lat="43.2396" lon="2.48267">
        <ele>129.259</ele>
        <time>2021-03-13T14:35:28Z</time>
      </trkpt>
      <trkpt lat="43.23991" lon="2.48234">
        <ele>134.406</ele>
        <time>2021-03-13T14:36:13Z</time>
      </trkpt>
      <trkpt lat="43.24009" lon="2.48207">
        <ele>135.771</ele>
        <time>2021-03-13T14:36:34Z</time>
      </trkpt>
      <trkpt lat="43.2407" lon="2.48159">
        <ele>135.198</ele>
        <time>2021-03-13T14:37:05Z</time>
      </trkpt>
      <trkpt lat="43.24059" lon="2.48153">
        <ele>134.798</ele>
        <time>2021-03-13T14:40:39Z</time>
      </trkpt>
      <trkpt lat="43.24063" lon="2.4813">
        <ele>135.063</ele>
        <time>2021-03-13T14:40:53Z</time>
      </trkpt>
      <trkpt lat="43.2405" lon="2.48084">
        <ele>134.975</ele>
        <time>2021-03-13T14:41:11Z</time>
      </trkpt>
      <trkpt lat="43.24016" lon="2.48017">
        <ele>135.95</ele>
        <time>2021-03-13T14:41:40Z</time>
      </trkpt>
      <trkpt lat="43.24031" lon="2.48049">
        <ele>135.133</ele>
        <time>2021-03-13T14:42:09Z</time>
      </trkpt>
      <trkpt lat="43.24018" lon="2.48037">
        <ele>135.021</ele>
        <time>2021-03-13T14:42:38Z</time>
      </trkpt>
      <trkpt lat="43.23998" lon="2.48059">
        <ele>134.079</ele>
        <time>2021-03-13T14:43:02Z</time>
      </trkpt>
      <trkpt lat="43.23961" lon="2.4808">
        <ele>132.955</ele>
        <time>2021-03-13T14:43:37Z</time>
      </trkpt>
      <trkpt lat="43.23943" lon="2.48093">
        <ele>132.935</ele>
        <time>2021-03-13T14:43:57Z</time>
      </trkpt>
      <trkpt lat="43.23927" lon="2.48115">
        <ele>131.36</ele>
        <time>2021-03-13T14:44:20Z</time>
      </trkpt>
      <trkpt lat="43.23905" lon="2.48142">
        <ele>132.176</ele>
        <time>2021-03-13T14:44:37Z</time>
      </trkpt>
      <trkpt lat="43.23903" lon="2.48124">
        <ele>134.348</ele>
        <time>2021-03-13T14:44:59Z</time>
      </trkpt>
      <trkpt lat="43.23909" lon="2.48098">
        <ele>136.176</ele>
        <time>2021-03-13T14:45:30Z</time>
      </trkpt>
      <trkpt lat="43.23915" lon="2.48075">
        <ele>136.439</ele>
        <time>2021-03-13T14:45:46Z</time>
      </trkpt>
      <trkpt lat="43.23904" lon="2.48073">
        <ele>138.335</ele>
        <time>2021-03-13T14:45:58Z</time>
      </trkpt>
      <trkpt lat="43.23872" lon="2.48097">
        <ele>143.262</ele>
        <time>2021-03-13T14:46:36Z</time>
      </trkpt>
      <trkpt lat="43.23859" lon="2.48102">
        <ele>145.633</ele>
        <time>2021-03-13T14:47:04Z</time>
      </trkpt>
      <trkpt lat="43.23821" lon="2.48038">
        <ele>153.425</ele>
        <time>2021-03-13T14:48:26Z</time>
      </trkpt>
      <trkpt lat="43.2382" lon="2.48">
        <ele>154.107</ele>
        <time>2021-03-13T14:48:41Z</time>
      </trkpt>
      <trkpt lat="43.23811" lon="2.47988">
        <ele>155.254</ele>
        <time>2021-03-13T14:49:04Z</time>
      </trkpt>
      <trkpt lat="43.23804" lon="2.48031">
        <ele>156.159</ele>
        <time>2021-03-13T14:49:27Z</time>
      </trkpt>
      <trkpt lat="43.23804" lon="2.48059">
        <ele>155.772</ele>
        <time>2021-03-13T14:49:57Z</time>
      </trkpt>
      <trkpt lat="43.23801" lon="2.48149">
        <ele>154.993</ele>
        <time>2021-03-13T14:50:14Z</time>
      </trkpt>
      <trkpt lat="43.23804" lon="2.48212">
        <ele>150.26</ele>
        <time>2021-03-13T14:50:24Z</time>
      </trkpt>
      <trkpt lat="43.23783" lon="2.48247">
        <ele>149.663</ele>
        <time>2021-03-13T14:50:33Z</time>
      </trkpt>
      <trkpt lat="43.23761" lon="2.48262">
        <ele>149.725</ele>
        <time>2021-03-13T14:50:47Z</time>
      </trkpt>
      <trkpt lat="43.23749" lon="2.48269">
        <ele>149.988</ele>
        <time>2021-03-13T14:51:10Z</time>
      </trkpt>
      <trkpt lat="43.2373" lon="2.48332">
        <ele>140.485</ele>
        <time>2021-03-13T14:51:23Z</time>
      </trkpt>
      <trkpt lat="43.2373" lon="2.48369">
        <ele>135.595</ele>
        <time>2021-03-13T14:51:32Z</time>
      </trkpt>
      <trkpt lat="43.23762" lon="2.48361">
        <ele>134.177</ele>
        <time>2021-03-13T14:51:40Z</time>
      </trkpt>
      <trkpt lat="43.23784" lon="2.48336">
        <ele>135</ele>
        <time>2021-03-13T14:51:50Z</time>
      </trkpt>
      <trkpt lat="43.23778" lon="2.48362">
        <ele>132.31</ele>
        <time>2021-03-13T14:52:05Z</time>
      </trkpt>
      <trkpt lat="43.238" lon="2.48428">
        <ele>124.201</ele>
        <time>2021-03-13T14:52:17Z</time>
      </trkpt>
      <trkpt lat="43.23796" lon="2.48492">
        <ele>122.24</ele>
        <time>2021-03-13T14:52:30Z</time>
      </trkpt>
      <trkpt lat="43.23746" lon="2.48505">
        <ele>124.745</ele>
        <time>2021-03-13T14:52:47Z</time>
      </trkpt>
      <trkpt lat="43.23731" lon="2.48523">
        <ele>124.827</ele>
        <time>2021-03-13T14:53:06Z</time>
      </trkpt>
      <trkpt lat="43.23735" lon="2.48588">
        <ele>122.801</ele>
        <time>2021-03-13T14:53:21Z</time>
      </trkpt>
      <trkpt lat="43.23751" lon="2.48613">
        <ele>121.278</ele>
        <time>2021-03-13T14:53:37Z</time>
      </trkpt>
      <trkpt lat="43.23762" lon="2.4863">
        <ele>119.565</ele>
        <time>2021-03-13T14:53:49Z</time>
      </trkpt>
      <trkpt lat="43.23748" lon="2.48648">
        <ele>121.627</ele>
        <time>2021-03-13T14:54:01Z</time>
      </trkpt>
      <trkpt lat="43.23731" lon="2.48656">
        <ele>122.879</ele>
        <time>2021-03-13T14:54:18Z</time>
      </trkpt>
      <trkpt lat="43.23682" lon="2.48676">
        <ele>124.173</ele>
        <time>2021-03-13T14:54:38Z</time>
      </trkpt>
      <trkpt lat="43.23663" lon="2.48716">
        <ele>122.709</ele>
        <time>2021-03-13T14:54:54Z</time>
      </trkpt>
      <trkpt lat="43.23657" lon="2.48771">
        <ele>119.104</ele>
        <time>2021-03-13T14:55:12Z</time>
      </trkpt>
      <trkpt lat="43.23626" lon="2.48791">
        <ele>118.631</ele>
        <time>2021-03-13T14:55:24Z</time>
      </trkpt>
      <trkpt lat="43.23607" lon="2.48796">
        <ele>119.205</ele>
        <time>2021-03-13T14:55:37Z</time>
      </trkpt>
      <trkpt lat="43.23582" lon="2.48789">
        <ele>120.159</ele>
        <time>2021-03-13T14:55:56Z</time>
      </trkpt>
      <trkpt lat="43.23569" lon="2.48798">
        <ele>121.075</ele>
        <time>2021-03-13T14:56:23Z</time>
      </trkpt>
      <trkpt lat="43.23563" lon="2.48835">
        <ele>123.24</ele>
        <time>2021-03-13T14:56:44Z</time>
      </trkpt>
      <trkpt lat="43.2355" lon="2.48864">
        <ele>126.6</ele>
        <time>2021-03-13T14:56:59Z</time>
      </trkpt>
      <trkpt lat="43.23474" lon="2.48914">
        <ele>130.298</ele>
        <time>2021-03-13T14:57:37Z</time>
      </trkpt>
      <trkpt lat="43.23445" lon="2.48988">
        <ele>131</ele>
        <time>2021-03-13T14:58:05Z</time>
      </trkpt>
      <trkpt lat="43.23402" lon="2.4911">
        <ele>129.023</ele>
        <time>2021-03-13T14:58:26Z</time>
      </trkpt>
      <trkpt lat="43.23329" lon="2.49105">
        <ele>127.905</ele>
        <time>2021-03-13T14:58:44Z</time>
      </trkpt>
      <trkpt lat="43.23266" lon="2.49122">
        <ele>126.42</ele>
        <time>2021-03-13T14:58:59Z</time>
      </trkpt>
      <trkpt lat="43.23234" lon="2.49143">
        <ele>125.555</ele>
        <time>2021-03-13T15:00:06Z</time>
      </trkpt>
      <trkpt lat="43.23238" lon="2.49129">
        <ele>125.89</ele>
        <time>2021-03-13T15:00:43Z</time>
      </trkpt>
      <trkpt lat="43.23229" lon="2.49127">
        <ele>125.734</ele>
        <time>2021-03-13T15:00:57Z</time>
      </trkpt>
      <trkpt lat="43.2323" lon="2.49099">
        <ele>126.204</ele>
        <time>2021-03-13T15:01:19Z</time>
      </trkpt>
      <trkpt lat="43.23215" lon="2.49068">
        <ele>126.567</ele>
        <time>2021-03-13T15:01:35Z</time>
      </trkpt>
      <trkpt lat="43.23186" lon="2.48989">
        <ele>127.414</ele>
        <time>2021-03-13T15:02:14Z</time>
      </trkpt>
      <trkpt lat="43.23198" lon="2.48932">
        <ele>129.42</ele>
        <time>2021-03-13T15:02:39Z</time>
      </trkpt>
      <trkpt lat="43.23224" lon="2.4889">
        <ele>130.844</ele>
        <time>2021-03-13T15:03:02Z</time>
      </trkpt>
      <trkpt lat="43.23238" lon="2.48853">
        <ele>130.124</ele>
        <time>2021-03-13T15:03:18Z</time>
      </trkpt>
      <trkpt lat="43.23248" lon="2.48848">
        <ele>130.985</ele>
        <time>2021-03-13T15:03:29Z</time>
      </trkpt>
      <trkpt lat="43.23269" lon="2.48825">
        <ele>131.798</ele>
        <time>2021-03-13T15:03:41Z</time>
      </trkpt>
      <trkpt lat="43.23304" lon="2.48858">
        <ele>133.647</ele>
        <time>2021-03-13T15:04:06Z</time>
      </trkpt>
      <trkpt lat="43.23334" lon="2.48857">
        <ele>133.85</ele>
        <time>2021-03-13T15:04:35Z</time>
      </trkpt>
      <trkpt lat="43.23357" lon="2.48801">
        <ele>136.61</ele>
        <time>2021-03-13T15:05:03Z</time>
      </trkpt>
      <trkpt lat="43.23367" lon="2.48763">
        <ele>138.325</ele>
        <time>2021-03-13T15:05:17Z</time>
      </trkpt>
      <trkpt lat="43.23394" lon="2.48708">
        <ele>137.181</ele>
        <time>2021-03-13T15:05:32Z</time>
      </trkpt>
      <trkpt lat="43.2345" lon="2.48677">
        <ele>130.352</ele>
        <time>2021-03-13T15:05:47Z</time>
      </trkpt>
      <trkpt lat="43.23478" lon="2.48601">
        <ele>129.515</ele>
        <time>2021-03-13T15:06:09Z</time>
      </trkpt>
      <trkpt lat="43.23479" lon="2.48556">
        <ele>130.847</ele>
        <time>2021-03-13T15:06:32Z</time>
      </trkpt>
      <trkpt lat="43.23476" lon="2.48515">
        <ele>132.682</ele>
        <time>2021-03-13T15:06:49Z</time>
      </trkpt>
      <trkpt lat="43.23477" lon="2.4849">
        <ele>133.916</ele>
        <time>2021-03-13T15:07:03Z</time>
      </trkpt>
      <trkpt lat="43.2348" lon="2.48467">
        <ele>134.546</ele>
        <time>2021-03-13T15:07:18Z</time>
      </trkpt>
      <trkpt lat="43.23503" lon="2.48436">
        <ele>133.571</ele>
        <time>2021-03-13T15:07:33Z</time>
      </trkpt>
      <trkpt lat="43.23539" lon="2.48511">
        <ele>126.894</ele>
        <time>2021-03-13T15:07:57Z</time>
      </trkpt>
      <trkpt lat="43.23586" lon="2.48503">
        <ele>128.04</ele>
        <time>2021-03-13T15:08:25Z</time>
      </trkpt>
      <trkpt lat="43.23606" lon="2.48536">
        <ele>126.62</ele>
        <time>2021-03-13T15:08:39Z</time>
      </trkpt>
      <trkpt lat="43.23617" lon="2.48588">
        <ele>125.146</ele>
        <time>2021-03-13T15:08:56Z</time>
      </trkpt>
      <trkpt lat="43.23607" lon="2.48642">
        <ele>124.135</ele>
        <time>2021-03-13T15:09:11Z</time>
      </trkpt>
      <trkpt lat="43.23619" lon="2.48665">
        <ele>123.72</ele>
        <time>2021-03-13T15:09:23Z</time>
      </trkpt>
      <trkpt lat="43.2363" lon="2.48617">
        <ele>124.974</ele>
        <time>2021-03-13T15:09:45Z</time>
      </trkpt>
      <trkpt lat="43.2364" lon="2.48536">
        <ele>126.809</ele>
        <time>2021-03-13T15:10:06Z</time>
      </trkpt>
      <trkpt lat="43.23648" lon="2.48482">
        <ele>129.357</ele>
        <time>2021-03-13T15:10:26Z</time>
      </trkpt>
      <trkpt lat="43.23646" lon="2.48437">
        <ele>132.508</ele>
        <time>2021-03-13T15:10:47Z</time>
      </trkpt>
      <trkpt lat="43.23624" lon="2.48413">
        <ele>134.417</ele>
        <time>2021-03-13T15:11:09Z</time>
      </trkpt>
      <trkpt lat="43.23606" lon="2.48384">
        <ele>136.413</ele>
        <time>2021-03-13T15:11:25Z</time>
      </trkpt>
      <trkpt lat="43.23602" lon="2.48355">
        <ele>138.46</ele>
        <time>2021-03-13T15:11:42Z</time>
      </trkpt>
      <trkpt lat="43.23611" lon="2.48321">
        <ele>142.17</ele>
        <time>2021-03-13T15:12:01Z</time>
      </trkpt>
      <trkpt lat="43.2363" lon="2.48299">
        <ele>144.946</ele>
        <time>2021-03-13T15:12:19Z</time>
      </trkpt>
      <trkpt lat="43.23659" lon="2.48282">
        <ele>148.063</ele>
        <time>2021-03-13T15:12:40Z</time>
      </trkpt>
      <trkpt lat="43.23696" lon="2.48287">
        <ele>148.152</ele>
        <time>2021-03-13T15:13:05Z</time>
      </trkpt>
      <trkpt lat="43.23718" lon="2.48267">
        <ele>150.607</ele>
        <time>2021-03-13T15:13:24Z</time>
      </trkpt>
      <trkpt lat="43.23702" lon="2.48243">
        <ele>153.485</ele>
        <time>2021-03-13T15:13:44Z</time>
      </trkpt>
      <trkpt lat="43.23678" lon="2.48216">
        <ele>155.245</ele>
        <time>2021-03-13T15:14:09Z</time>
      </trkpt>
      <trkpt lat="43.23654" lon="2.48181">
        <ele>157.1</ele>
        <time>2021-03-13T15:14:28Z</time>
      </trkpt>
      <trkpt lat="43.23692" lon="2.4817">
        <ele>159.012</ele>
        <time>2021-03-13T15:14:51Z</time>
      </trkpt>
      <trkpt lat="43.23714" lon="2.48154">
        <ele>160.089</ele>
        <time>2021-03-13T15:15:09Z</time>
      </trkpt>
      <trkpt lat="43.23731" lon="2.48117">
        <ele>160.682</ele>
        <time>2021-03-13T15:15:30Z</time>
      </trkpt>
      <trkpt lat="43.23765" lon="2.48085">
        <ele>159.332</ele>
        <time>2021-03-13T15:15:50Z</time>
      </trkpt>
      <trkpt lat="43.23758" lon="2.48048">
        <ele>159.611</ele>
        <time>2021-03-13T15:16:11Z</time>
      </trkpt>
      <trkpt lat="43.23738" lon="2.48031">
        <ele>159.911</ele>
        <time>2021-03-13T15:16:25Z</time>
      </trkpt>
      <trkpt lat="43.23688" lon="2.48014">
        <ele>159.84</ele>
        <time>2021-03-13T15:16:52Z</time>
      </trkpt>
      <trkpt lat="43.23656" lon="2.48046">
        <ele>160.963</ele>
        <time>2021-03-13T15:17:10Z</time>
      </trkpt>
      <trkpt lat="43.23624" lon="2.48087">
        <ele>160.128</ele>
        <time>2021-03-13T15:17:27Z</time>
      </trkpt>
      <trkpt lat="43.23552" lon="2.48085">
        <ele>160.584</ele>
        <time>2021-03-13T15:17:56Z</time>
      </trkpt>
      <trkpt lat="43.23538" lon="2.48091">
        <ele>161.229</ele>
        <time>2021-03-13T15:18:19Z</time>
      </trkpt>
      <trkpt lat="43.23506" lon="2.48114">
        <ele>161.29</ele>
        <time>2021-03-13T15:18:37Z</time>
      </trkpt>
      <trkpt lat="43.23473" lon="2.48141">
        <ele>161.044</ele>
        <time>2021-03-13T15:18:59Z</time>
      </trkpt>
      <trkpt lat="43.23468" lon="2.48159">
        <ele>161.381</ele>
        <time>2021-03-13T15:19:08Z</time>
      </trkpt>
      <trkpt lat="43.23431" lon="2.48262">
        <ele>160.956</ele>
        <time>2021-03-13T15:19:35Z</time>
      </trkpt>
      <trkpt lat="43.23404" lon="2.48299">
        <ele>160.15</ele>
        <time>2021-03-13T15:20:38Z</time>
      </trkpt>
      <trkpt lat="43.2337" lon="2.48228">
        <ele>155.47</ele>
        <time>2021-03-13T15:20:55Z</time>
      </trkpt>
      <trkpt lat="43.23374" lon="2.48157">
        <ele>153.034</ele>
        <time>2021-03-13T15:21:06Z</time>
      </trkpt>
      <trkpt lat="43.23313" lon="2.48132">
        <ele>150.623</ele>
        <time>2021-03-13T15:21:19Z</time>
      </trkpt>
      <trkpt lat="43.23208" lon="2.48093">
        <ele>150.05</ele>
        <time>2021-03-13T15:21:42Z</time>
      </trkpt>
      <trkpt lat="43.23145" lon="2.48106">
        <ele>147.005</ele>
        <time>2021-03-13T15:21:55Z</time>
      </trkpt>
      <trkpt lat="43.231" lon="2.48155">
        <ele>142.537</ele>
        <time>2021-03-13T15:22:07Z</time>
      </trkpt>
      <trkpt lat="43.23053" lon="2.48245">
        <ele>137.009</ele>
        <time>2021-03-13T15:22:27Z</time>
      </trkpt>
      <trkpt lat="43.23016" lon="2.48307">
        <ele>133.803</ele>
        <time>2021-03-13T15:22:39Z</time>
      </trkpt>
      <trkpt lat="43.2297" lon="2.48361">
        <ele>130.691</ele>
        <time>2021-03-13T15:22:49Z</time>
      </trkpt>
      <trkpt lat="43.2293" lon="2.48346">
        <ele>127.209</ele>
        <time>2021-03-13T15:23:02Z</time>
      </trkpt>
      <trkpt lat="43.22917" lon="2.48345">
        <ele>125.536</ele>
        <time>2021-03-13T15:23:09Z</time>
      </trkpt>
      <trkpt lat="43.22902" lon="2.48342">
        <ele>123.258</ele>
        <time>2021-03-13T15:26:42Z</time>
      </trkpt>
      <trkpt lat="43.22861" lon="2.48348">
        <ele>119.614</ele>
        <time>2021-03-13T15:27:04Z</time>
      </trkpt>
      <trkpt lat="43.22829" lon="2.4835">
        <ele>116.018</ele>
        <time>2021-03-13T15:27:15Z</time>
      </trkpt>
      <trkpt lat="43.22873" lon="2.48339">
        <ele>119.563</ele>
        <time>2021-03-13T15:27:46Z</time>
      </trkpt>
      <trkpt lat="43.22924" lon="2.48323">
        <ele>124.626</ele>
        <time>2021-03-13T15:28:21Z</time>
      </trkpt>
      <trkpt lat="43.22974" lon="2.48208">
        <ele>124.739</ele>
        <time>2021-03-13T15:28:58Z</time>
      </trkpt>
      <trkpt lat="43.22937" lon="2.48135">
        <ele>116.395</ele>
        <time>2021-03-13T15:29:15Z</time>
      </trkpt>
      <trkpt lat="43.22934" lon="2.48106">
        <ele>116.981</ele>
        <time>2021-03-13T15:29:32Z</time>
      </trkpt>
      <trkpt lat="43.2293" lon="2.4807">
        <ele>118.756</ele>
        <time>2021-03-13T15:29:47Z</time>
      </trkpt>
      <trkpt lat="43.2292" lon="2.48033">
        <ele>121.816</ele>
        <time>2021-03-13T15:30:02Z</time>
      </trkpt>
      <trkpt lat="43.2292" lon="2.47999">
        <ele>125.169</ele>
        <time>2021-03-13T15:30:20Z</time>
      </trkpt>
      <trkpt lat="43.22924" lon="2.47972">
        <ele>127.239</ele>
        <time>2021-03-13T15:30:34Z</time>
      </trkpt>
      <trkpt lat="43.22933" lon="2.47926">
        <ele>127.55</ele>
        <time>2021-03-13T15:30:55Z</time>
      </trkpt>
      <trkpt lat="43.22941" lon="2.47866">
        <ele>128.649</ele>
        <time>2021-03-13T15:31:24Z</time>
      </trkpt>
      <trkpt lat="43.22943" lon="2.47836">
        <ele>130.028</ele>
        <time>2021-03-13T15:31:42Z</time>
      </trkpt>
      <trkpt lat="43.22935" lon="2.47804">
        <ele>132.528</ele>
        <time>2021-03-13T15:33:02Z</time>
      </trkpt>
      <trkpt lat="43.22938" lon="2.47776">
        <ele>133.728</ele>
        <time>2021-03-13T15:33:15Z</time>
      </trkpt>
      <trkpt lat="43.22929" lon="2.47715">
        <ele>137.11</ele>
        <time>2021-03-13T15:33:36Z</time>
      </trkpt>
      <trkpt lat="43.22929" lon="2.47675">
        <ele>138.637</ele>
        <time>2021-03-13T15:33:58Z</time>
      </trkpt>
      <trkpt lat="43.22934" lon="2.47644">
        <ele>139.321</ele>
        <time>2021-03-13T15:34:13Z</time>
      </trkpt>
      <trkpt lat="43.22942" lon="2.47581">
        <ele>140.104</ele>
        <time>2021-03-13T15:34:39Z</time>
      </trkpt>
      <trkpt lat="43.22892" lon="2.47551">
        <ele>139.865</ele>
        <time>2021-03-13T15:35:04Z</time>
      </trkpt>
      <trkpt lat="43.22853" lon="2.4756">
        <ele>139.972</ele>
        <time>2021-03-13T15:35:24Z</time>
      </trkpt>
      <trkpt lat="43.22838" lon="2.4759">
        <ele>140.255</ele>
        <time>2021-03-13T15:35:48Z</time>
      </trkpt>
      <trkpt lat="43.22811" lon="2.4761">
        <ele>140.85</ele>
        <time>2021-03-13T15:36:08Z</time>
      </trkpt>
      <trkpt lat="43.22838" lon="2.47684">
        <ele>140.55</ele>
        <time>2021-03-13T15:36:27Z</time>
      </trkpt>
      <trkpt lat="43.22843" lon="2.47757">
        <ele>142.541</ele>
        <time>2021-03-13T15:36:48Z</time>
      </trkpt>
      <trkpt lat="43.22838" lon="2.47852">
        <ele>145.246</ele>
        <time>2021-03-13T15:37:10Z</time>
      </trkpt>
      <trkpt lat="43.22802" lon="2.47954">
        <ele>144.846</ele>
        <time>2021-03-13T15:37:36Z</time>
      </trkpt>
      <trkpt lat="43.22754" lon="2.47974">
        <ele>142.802</ele>
        <time>2021-03-13T15:38:30Z</time>
      </trkpt>
      <trkpt lat="43.22764" lon="2.48001">
        <ele>139.536</ele>
        <time>2021-03-13T15:38:41Z</time>
      </trkpt>
      <trkpt lat="43.22745" lon="2.48037">
        <ele>134.829</ele>
        <time>2021-03-13T15:38:49Z</time>
      </trkpt>
      <trkpt lat="43.2268" lon="2.48049">
        <ele>134.759</ele>
        <time>2021-03-13T15:39:06Z</time>
      </trkpt>
      <trkpt lat="43.22577" lon="2.48115">
        <ele>133.382</ele>
        <time>2021-03-13T15:39:38Z</time>
      </trkpt>
      <trkpt lat="43.22527" lon="2.4813">
        <ele>131.654</ele>
        <time>2021-03-13T15:39:54Z</time>
      </trkpt>
      <trkpt lat="43.22494" lon="2.48102">
        <ele>132.718</ele>
        <time>2021-03-13T15:40:09Z</time>
      </trkpt>
      <trkpt lat="43.22506" lon="2.48081">
        <ele>135.084</ele>
        <time>2021-03-13T15:40:23Z</time>
      </trkpt>
      <trkpt lat="43.22514" lon="2.4806">
        <ele>136.877</ele>
        <time>2021-03-13T15:40:34Z</time>
      </trkpt>
      <trkpt lat="43.2254" lon="2.48021">
        <ele>139.313</ele>
        <time>2021-03-13T15:40:51Z</time>
      </trkpt>
      <trkpt lat="43.22566" lon="2.47994">
        <ele>139.901</ele>
        <time>2021-03-13T15:41:19Z</time>
      </trkpt>
      <trkpt lat="43.22612" lon="2.47986">
        <ele>140.559</ele>
        <time>2021-03-13T15:42:14Z</time>
      </trkpt>
      <trkpt lat="43.22655" lon="2.47959">
        <ele>141.913</ele>
        <time>2021-03-13T15:42:37Z</time>
      </trkpt>
      <trkpt lat="43.22688" lon="2.47934">
        <ele>143.332</ele>
        <time>2021-03-13T15:42:53Z</time>
      </trkpt>
      <trkpt lat="43.22726" lon="2.47921">
        <ele>144.9</ele>
        <time>2021-03-13T15:43:14Z</time>
      </trkpt>
      <trkpt lat="43.22726" lon="2.47894">
        <ele>144.997</ele>
        <time>2021-03-13T15:43:27Z</time>
      </trkpt>
      <trkpt lat="43.22717" lon="2.47818">
        <ele>143.053</ele>
        <time>2021-03-13T15:43:52Z</time>
      </trkpt>
      <trkpt lat="43.22692" lon="2.47757">
        <ele>140.98</ele>
        <time>2021-03-13T15:44:08Z</time>
      </trkpt>
      <trkpt lat="43.22685" lon="2.47748">
        <ele>140.708</ele>
        <time>2021-03-13T15:44:26Z</time>
      </trkpt>
      <trkpt lat="43.22675" lon="2.47704">
        <ele>139.69</ele>
        <time>2021-03-13T15:44:42Z</time>
      </trkpt>
      <trkpt lat="43.22668" lon="2.47654">
        <ele>138.997</ele>
        <time>2021-03-13T15:45:00Z</time>
      </trkpt>
      <trkpt lat="43.22669" lon="2.47676">
        <ele>139.173</ele>
        <time>2021-03-13T15:45:25Z</time>
      </trkpt>
      <trkpt lat="43.22661" lon="2.47699">
        <ele>139.551</ele>
        <time>2021-03-13T15:45:40Z</time>
      </trkpt>
      <trkpt lat="43.22634" lon="2.47729">
        <ele>140.08</ele>
        <time>2021-03-13T15:46:01Z</time>
      </trkpt>
      <trkpt lat="43.22605" lon="2.47753">
        <ele>140.931</ele>
        <time>2021-03-13T15:46:17Z</time>
      </trkpt>
      <trkpt lat="43.22558" lon="2.47735">
        <ele>140.588</ele>
        <time>2021-03-13T15:46:37Z</time>
      </trkpt>
      <trkpt lat="43.2256" lon="2.47675">
        <ele>139.253</ele>
        <time>2021-03-13T15:46:54Z</time>
      </trkpt>
      <trkpt lat="43.2256" lon="2.47641">
        <ele>138.435</ele>
        <time>2021-03-13T15:47:07Z</time>
      </trkpt>
      <trkpt lat="43.22586" lon="2.47566">
        <ele>137.476</ele>
        <time>2021-03-13T15:47:27Z</time>
      </trkpt>
      <trkpt lat="43.22492" lon="2.47564">
        <ele>135.402</ele>
        <time>2021-03-13T15:48:00Z</time>
      </trkpt>
      <trkpt lat="43.22378" lon="2.47589">
        <ele>133.398</ele>
        <time>2021-03-13T15:48:31Z</time>
      </trkpt>
      <trkpt lat="43.22275" lon="2.47606">
        <ele>132.221</ele>
        <time>2021-03-13T15:49:00Z</time>
      </trkpt>
      <trkpt lat="43.22246" lon="2.47668">
        <ele>131.038</ele>
        <time>2021-03-13T15:49:10Z</time>
      </trkpt>
      <trkpt lat="43.22186" lon="2.4766">
        <ele>129.31</ele>
        <time>2021-03-13T15:49:24Z</time>
      </trkpt>
      <trkpt lat="43.22144" lon="2.47673">
        <ele>128.848</ele>
        <time>2021-03-13T15:49:36Z</time>
      </trkpt>
      <trkpt lat="43.22071" lon="2.47693">
        <ele>129.181</ele>
        <time>2021-03-13T15:50:02Z</time>
      </trkpt>
      <trkpt lat="43.22048" lon="2.47777">
        <ele>127.265</ele>
        <time>2021-03-13T15:50:19Z</time>
      </trkpt>
      <trkpt lat="43.22" lon="2.4785">
        <ele>124.965</ele>
        <time>2021-03-13T15:50:41Z</time>
      </trkpt>
      <trkpt lat="43.21926" lon="2.47807">
        <ele>125.66</ele>
        <time>2021-03-13T15:51:06Z</time>
      </trkpt>
      <trkpt lat="43.2182" lon="2.47772">
        <ele>124.327</ele>
        <time>2021-03-13T15:51:34Z</time>
      </trkpt>
      <trkpt lat="43.2174" lon="2.477">
        <ele>123.587</ele>
        <time>2021-03-13T15:51:52Z</time>
      </trkpt>
      <trkpt lat="43.21685" lon="2.47579">
        <ele>122.673</ele>
        <time>2021-03-13T15:52:14Z</time>
      </trkpt>
      <trkpt lat="43.2168" lon="2.47383">
        <ele>120</ele>
        <time>2021-03-13T15:52:45Z</time>
      </trkpt>
      <trkpt lat="43.21635" lon="2.47338">
        <ele>119.716</ele>
        <time>2021-03-13T15:52:58Z</time>
      </trkpt>
      <trkpt lat="43.21645" lon="2.47286">
        <ele>119.604</ele>
        <time>2021-03-13T15:53:15Z</time>
      </trkpt>
    </trkseg>
  </trk>
</gpx>